KLM644 KJFK-EHAM
Flight info
| Callsign | KLM644 |
|---|---|
| Flight time | 6h 27m |
| Altitude | 37000 |
| Route | GREKI DCT JUDDS DCT MARTN DCT TOPPS N635A RIKAL/M084F400 DCT 53N050W 54N040W 55N030W 55N020W DCT DOGAL DCT BEXET/N0487F410 DCT LIFFY DCT DOLAS L603 LAMSO |
| Aircraft | B772/H-SDE2E3FGHIJ5LORVWXY/LB1D1 |
Departure
| Time | 2026-05-07 11:39 |
|---|---|
| Airport | John F. Kennedy International Airport (KJFK) |
Arrival
| Time | 2026-05-07 18:07 |
|---|---|
| Airport | Amsterdam Airport Schiphol (EHAM) |
| Time | Latitude | Longitude | Altitude | Speed | Heading |
|---|---|---|---|---|---|
| 2026-05-07 10:36 | 40.64093 | -73.78336 | 28 ft | 0 kts | 61° |
| 2026-05-07 11:25 | 40.64093 | -73.78337 | 28 ft | 1 kts | 61° |
| 2026-05-07 11:25 | 40.64085 | -73.78354 | 28 ft | 2 kts | 61° |
| 2026-05-07 11:25 | 40.64078 | -73.78371 | 28 ft | 2 kts | 61° |
| 2026-05-07 11:25 | 40.64071 | -73.78388 | 28 ft | 2 kts | 67° |
| 2026-05-07 11:26 | 40.64069 | -73.78407 | 28 ft | 2 kts | 101° |
| 2026-05-07 11:26 | 40.64074 | -73.78426 | 28 ft | 2 kts | 127° |
| 2026-05-07 11:26 | 40.64085 | -73.78439 | 28 ft | 2 kts | 153° |
| 2026-05-07 11:26 | 40.64099 | -73.78447 | 28 ft | 2 kts | 153° |
| 2026-05-07 11:27 | 40.64112 | -73.78456 | 28 ft | 2 kts | 150° |
| 2026-05-07 11:27 | 40.64118 | -73.78461 | 28 ft | 0 kts | 150° |
| 2026-05-07 11:32 | 40.64086 | -73.78437 | 28 ft | 7 kts | 150° |
| 2026-05-07 11:32 | 40.64025 | -73.78392 | 28 ft | 12 kts | 150° |
| 2026-05-07 11:32 | 40.63938 | -73.78327 | 28 ft | 13 kts | 152° |
| 2026-05-07 11:33 | 40.63843 | -73.78291 | 28 ft | 15 kts | 171° |
| 2026-05-07 11:33 | 40.63735 | -73.78273 | 28 ft | 16 kts | 173° |
| 2026-05-07 11:33 | 40.63631 | -73.78256 | 28 ft | 12 kts | 173° |
| 2026-05-07 11:33 | 40.63551 | -73.78270 | 28 ft | 9 kts | 188° |
| 2026-05-07 11:34 | 40.63493 | -73.78226 | 28 ft | 11 kts | 123° |
| 2026-05-07 11:34 | 40.63449 | -73.78129 | 28 ft | 13 kts | 120° |
| 2026-05-07 11:34 | 40.63400 | -73.78017 | 28 ft | 14 kts | 119° |
| 2026-05-07 11:34 | 40.63347 | -73.77891 | 28 ft | 16 kts | 120° |
| 2026-05-07 11:35 | 40.63287 | -73.77763 | 28 ft | 17 kts | 121° |
| 2026-05-07 11:35 | 40.63223 | -73.77618 | 28 ft | 18 kts | 120° |
| 2026-05-07 11:35 | 40.63153 | -73.77463 | 28 ft | 20 kts | 121° |
| 2026-05-07 11:35 | 40.63079 | -73.77302 | 28 ft | 21 kts | 121° |
| 2026-05-07 11:36 | 40.63024 | -73.77181 | 28 ft | 13 kts | 120° |
| 2026-05-07 11:36 | 40.62975 | -73.77092 | 28 ft | 10 kts | 153° |
| 2026-05-07 11:36 | 40.62919 | -73.77107 | 28 ft | 5 kts | 211° |
| 2026-05-07 11:36 | 40.62891 | -73.77129 | 28 ft | 1 kts | 211° |
| 2026-05-07 11:37 | 40.62890 | -73.77130 | 28 ft | 1 kts | 211° |
| 2026-05-07 11:37 | 40.62873 | -73.77144 | 28 ft | 5 kts | 211° |
| 2026-05-07 11:37 | 40.62833 | -73.77187 | 28 ft | 9 kts | 237° |
| 2026-05-07 11:37 | 40.62844 | -73.77278 | 28 ft | 12 kts | 300° |
| 2026-05-07 11:38 | 40.62865 | -73.77322 | 28 ft | 0 kts | 301° |
| 2026-05-07 11:38 | 40.62870 | -73.77333 | 28 ft | 3 kts | 301° |
| 2026-05-07 11:38 | 40.62897 | -73.77393 | 28 ft | 14 kts | 301° |
| 2026-05-07 11:38 | 40.63036 | -73.77694 | 28 ft | 75 kts | 300° |
| 2026-05-07 11:39 | 40.63435 | -73.78582 | 28 ft | 147 kts | 301° |
| 2026-05-07 11:39 | 40.64052 | -73.79950 | 138 ft | 191 kts | 300° |
| 2026-05-07 11:39 | 40.64677 | -73.81484 | 892 ft | 197 kts | 297° |
| 2026-05-07 11:39 | 40.65229 | -73.82964 | 2193 ft | 172 kts | 299° |
| 2026-05-07 11:40 | 40.65779 | -73.84402 | 2665 ft | 183 kts | 310° |
| 2026-05-07 11:40 | 40.66859 | -73.85359 | 2964 ft | 202 kts | 343° |
| 2026-05-07 11:40 | 40.68309 | -73.85261 | 3378 ft | 222 kts | 16° |
| 2026-05-07 11:40 | 40.69723 | -73.84309 | 3951 ft | 234 kts | 24° |
| 2026-05-07 11:41 | 40.71203 | -73.83212 | 4350 ft | 254 kts | 24° |
| 2026-05-07 11:41 | 40.72755 | -73.82061 | 4988 ft | 263 kts | 24° |
| 2026-05-07 11:41 | 40.74353 | -73.80864 | 5546 ft | 275 kts | 24° |
| 2026-05-07 11:41 | 40.76060 | -73.79651 | 6152 ft | 284 kts | 21° |
| 2026-05-07 11:42 | 40.77856 | -73.78458 | 6815 ft | 291 kts | 20° |
| 2026-05-07 11:42 | 40.79675 | -73.77255 | 7450 ft | 299 kts | 20° |
| 2026-05-07 11:42 | 40.81544 | -73.76017 | 8174 ft | 303 kts | 20° |
| 2026-05-07 11:42 | 40.83441 | -73.74762 | 8737 ft | 313 kts | 20° |
| 2026-05-07 11:43 | 40.85412 | -73.73456 | 9415 ft | 318 kts | 20° |
| 2026-05-07 11:43 | 40.87387 | -73.72146 | 10027 ft | 325 kts | 20° |
| 2026-05-07 11:43 | 40.89480 | -73.70761 | 10407 ft | 342 kts | 20° |
| 2026-05-07 11:43 | 40.91663 | -73.69316 | 10727 ft | 361 kts | 20° |
| 2026-05-07 11:44 | 40.93957 | -73.67795 | 11069 ft | 378 kts | 21° |
| 2026-05-07 11:44 | 40.96360 | -73.66199 | 11386 ft | 396 kts | 21° |
| 2026-05-07 11:44 | 40.98871 | -73.64527 | 11735 ft | 412 kts | 21° |
| 2026-05-07 11:44 | 41.01449 | -73.62808 | 12178 ft | 424 kts | 21° |
| 2026-05-07 11:45 | 41.04089 | -73.61043 | 12801 ft | 431 kts | 21° |
| 2026-05-07 11:45 | 41.06777 | -73.59244 | 13532 ft | 434 kts | 22° |
| 2026-05-07 11:45 | 41.09496 | -73.57422 | 14201 ft | 440 kts | 21° |
| 2026-05-07 11:45 | 41.12233 | -73.55586 | 14804 ft | 446 kts | 21° |
| 2026-05-07 11:46 | 41.15024 | -73.53713 | 15463 ft | 451 kts | 20° |
| 2026-05-07 11:46 | 41.17804 | -73.51842 | 16139 ft | 454 kts | 20° |
| 2026-05-07 11:46 | 41.20643 | -73.49931 | 16848 ft | 456 kts | 20° |
| 2026-05-07 11:46 | 41.23465 | -73.48031 | 17442 ft | 461 kts | 20° |
| 2026-05-07 11:47 | 41.26323 | -73.46104 | 18083 ft | 465 kts | 20° |
| 2026-05-07 11:47 | 41.29218 | -73.44150 | 18733 ft | 468 kts | 19° |
| 2026-05-07 11:47 | 41.32135 | -73.42180 | 19189 ft | 476 kts | 19° |
| 2026-05-07 11:47 | 41.35129 | -73.40157 | 19701 ft | 483 kts | 19° |
| 2026-05-07 11:48 | 41.38126 | -73.38126 | 20322 ft | 485 kts | 18° |
| 2026-05-07 11:48 | 41.41134 | -73.36086 | 20907 ft | 489 kts | 18° |
| 2026-05-07 11:48 | 41.44179 | -73.34018 | 21380 ft | 495 kts | 18° |
| 2026-05-07 11:48 | 41.47166 | -73.31742 | 21846 ft | 508 kts | 26° |
| 2026-05-07 11:49 | 41.50019 | -73.28768 | 22292 ft | 523 kts | 36° |
| 2026-05-07 11:49 | 41.52655 | -73.25360 | 22762 ft | 530 kts | 39° |
| 2026-05-07 11:49 | 41.55268 | -73.21905 | 23156 ft | 534 kts | 37° |
| 2026-05-07 11:49 | 41.58175 | -73.18780 | 23460 ft | 533 kts | 26° |
| 2026-05-07 11:50 | 41.61337 | -73.16285 | 23789 ft | 528 kts | 17° |
| 2026-05-07 11:50 | 41.64731 | -73.14433 | 24321 ft | 516 kts | 7° |
| 2026-05-07 11:50 | 41.68151 | -73.13286 | 24854 ft | 502 kts | 357° |
| 2026-05-07 11:50 | 41.71582 | -73.12780 | 25285 ft | 491 kts | 348° |
| 2026-05-07 11:51 | 41.74972 | -73.12899 | 25687 ft | 480 kts | 341° |
| 2026-05-07 11:51 | 41.78285 | -73.13396 | 26100 ft | 480 kts | 339° |
| 2026-05-07 11:51 | 41.81618 | -73.13940 | 26770 ft | 478 kts | 338° |
| 2026-05-07 11:51 | 41.84882 | -73.14482 | 27280 ft | 479 kts | 338° |
| 2026-05-07 11:52 | 41.88212 | -73.15042 | 27713 ft | 482 kts | 337° |
| 2026-05-07 11:52 | 41.91520 | -73.15602 | 28079 ft | 486 kts | 337° |
| 2026-05-07 11:52 | 41.94903 | -73.16177 | 28456 ft | 489 kts | 337° |
| 2026-05-07 11:52 | 41.98278 | -73.16750 | 28900 ft | 491 kts | 337° |
| 2026-05-07 11:53 | 42.01653 | -73.17326 | 29211 ft | 495 kts | 336° |
| 2026-05-07 11:53 | 42.05085 | -73.17912 | 29603 ft | 498 kts | 336° |
| 2026-05-07 11:53 | 42.08521 | -73.18494 | 30205 ft | 496 kts | 336° |
| 2026-05-07 11:53 | 42.11913 | -73.19074 | 30616 ft | 498 kts | 336° |
| 2026-05-07 11:54 | 42.15375 | -73.19668 | 31036 ft | 499 kts | 337° |
| 2026-05-07 11:54 | 42.18799 | -73.20254 | 31468 ft | 499 kts | 336° |
| 2026-05-07 11:54 | 42.22213 | -73.20837 | 31968 ft | 497 kts | 336° |
| 2026-05-07 11:54 | 42.25657 | -73.21429 | 32387 ft | 497 kts | 337° |
| 2026-05-07 11:55 | 42.29044 | -73.22008 | 32991 ft | 492 kts | 336° |
| 2026-05-07 11:55 | 42.32404 | -73.22581 | 33645 ft | 486 kts | 336° |
| 2026-05-07 11:55 | 42.35784 | -73.23167 | 33952 ft | 488 kts | 336° |
| 2026-05-07 11:55 | 42.39151 | -73.23753 | 34310 ft | 488 kts | 337° |
| 2026-05-07 11:56 | 42.42513 | -73.24335 | 34704 ft | 487 kts | 337° |
| 2026-05-07 11:56 | 42.45834 | -73.24891 | 35149 ft | 488 kts | 340° |
| 2026-05-07 11:56 | 42.49291 | -73.24987 | 35644 ft | 504 kts | 349° |
| 2026-05-07 11:56 | 42.52823 | -73.24378 | 36141 ft | 520 kts | 358° |
| 2026-05-07 11:57 | 42.56357 | -73.23061 | 36501 ft | 537 kts | 7° |
| 2026-05-07 11:57 | 42.59798 | -73.21047 | 36762 ft | 553 kts | 17° |
| 2026-05-07 11:57 | 42.63119 | -73.18289 | 36852 ft | 569 kts | 26° |
| 2026-05-07 11:57 | 42.66184 | -73.14796 | 36872 ft | 581 kts | 37° |
| 2026-05-07 11:58 | 42.68850 | -73.10651 | 36844 ft | 591 kts | 49° |
| 2026-05-07 11:58 | 42.73368 | -73.01276 | 36855 ft | 594 kts | 53° |
| 2026-05-07 11:59 | 42.77946 | -72.91877 | 36844 ft | 596 kts | 51° |
| 2026-05-07 11:59 | 42.82641 | -72.82640 | 36852 ft | 593 kts | 50° |
| 2026-05-07 12:00 | 42.87357 | -72.73554 | 36858 ft | 592 kts | 50° |
| 2026-05-07 12:00 | 42.92155 | -72.64420 | 36854 ft | 590 kts | 49° |
| 2026-05-07 12:01 | 42.96927 | -72.55392 | 36867 ft | 593 kts | 50° |
| 2026-05-07 12:01 | 43.01734 | -72.46312 | 36867 ft | 591 kts | 49° |
| 2026-05-07 12:02 | 43.06562 | -72.37195 | 36859 ft | 592 kts | 49° |
| 2026-05-07 12:02 | 43.11370 | -72.28102 | 36839 ft | 588 kts | 50° |
| 2026-05-07 12:03 | 43.16177 | -72.18993 | 36826 ft | 589 kts | 50° |
| 2026-05-07 12:03 | 43.20950 | -72.09925 | 36841 ft | 590 kts | 50° |
| 2026-05-07 12:04 | 43.25726 | -72.00829 | 36835 ft | 589 kts | 50° |
| 2026-05-07 12:04 | 43.30509 | -71.91692 | 36841 ft | 592 kts | 49° |
| 2026-05-07 12:05 | 43.35281 | -71.82547 | 36836 ft | 586 kts | 50° |
| 2026-05-07 12:05 | 43.40017 | -71.73446 | 36833 ft | 588 kts | 49° |
| 2026-05-07 12:06 | 43.44760 | -71.64304 | 36812 ft | 590 kts | 50° |
| 2026-05-07 12:06 | 43.49481 | -71.55172 | 36843 ft | 584 kts | 50° |
| 2026-05-07 12:07 | 43.54174 | -71.46072 | 36810 ft | 587 kts | 50° |
| 2026-05-07 12:07 | 43.58861 | -71.36951 | 36833 ft | 583 kts | 51° |
| 2026-05-07 12:08 | 43.63549 | -71.27804 | 36824 ft | 585 kts | 51° |
| 2026-05-07 12:08 | 43.68211 | -71.18676 | 36833 ft | 583 kts | 51° |
| 2026-05-07 12:09 | 43.72883 | -71.09501 | 36780 ft | 585 kts | 51° |
| 2026-05-07 12:09 | 43.77505 | -71.00395 | 36779 ft | 582 kts | 52° |
| 2026-05-07 12:10 | 43.82135 | -70.91246 | 36809 ft | 582 kts | 51° |
| 2026-05-07 12:10 | 43.86771 | -70.82056 | 36806 ft | 581 kts | 51° |
| 2026-05-07 12:11 | 43.91375 | -70.72900 | 36818 ft | 581 kts | 51° |
| 2026-05-07 12:11 | 43.95967 | -70.63740 | 36793 ft | 580 kts | 52° |
| 2026-05-07 12:12 | 44.00552 | -70.54565 | 36801 ft | 579 kts | 51° |
| 2026-05-07 12:12 | 44.05134 | -70.45367 | 36800 ft | 578 kts | 52° |
| 2026-05-07 12:13 | 44.09690 | -70.36192 | 36810 ft | 578 kts | 51° |
| 2026-05-07 12:13 | 44.14259 | -70.26963 | 36787 ft | 578 kts | 53° |
| 2026-05-07 12:14 | 44.18794 | -70.17771 | 36794 ft | 577 kts | 52° |
| 2026-05-07 12:14 | 44.23324 | -70.08562 | 36798 ft | 577 kts | 52° |
| 2026-05-07 12:15 | 44.27838 | -69.99356 | 36790 ft | 577 kts | 52° |
| 2026-05-07 12:15 | 44.32322 | -69.90181 | 36787 ft | 573 kts | 52° |
| 2026-05-07 12:16 | 44.36812 | -69.80967 | 36797 ft | 576 kts | 52° |
| 2026-05-07 12:16 | 44.41291 | -69.71744 | 36800 ft | 574 kts | 52° |
| 2026-05-07 12:17 | 44.45730 | -69.62575 | 36777 ft | 572 kts | 53° |
| 2026-05-07 12:17 | 44.50186 | -69.53343 | 36776 ft | 574 kts | 53° |
| 2026-05-07 12:18 | 44.54642 | -69.44079 | 36760 ft | 573 kts | 53° |
| 2026-05-07 12:18 | 44.59042 | -69.34902 | 36784 ft | 571 kts | 53° |
| 2026-05-07 12:19 | 44.63458 | -69.25665 | 36755 ft | 570 kts | 53° |
| 2026-05-07 12:19 | 44.67852 | -69.16442 | 36755 ft | 571 kts | 53° |
| 2026-05-07 12:20 | 44.72252 | -69.07179 | 36767 ft | 568 kts | 53° |
| 2026-05-07 12:20 | 44.76635 | -68.97921 | 36769 ft | 569 kts | 53° |
| 2026-05-07 12:21 | 44.80997 | -68.88676 | 36771 ft | 566 kts | 53° |
| 2026-05-07 12:21 | 44.85339 | -68.79446 | 36757 ft | 569 kts | 54° |
| 2026-05-07 12:22 | 44.89652 | -68.70247 | 36768 ft | 565 kts | 53° |
| 2026-05-07 12:22 | 44.93963 | -68.61021 | 36781 ft | 564 kts | 53° |
| 2026-05-07 12:23 | 44.98277 | -68.51761 | 36754 ft | 565 kts | 54° |
| 2026-05-07 12:23 | 45.02559 | -68.42539 | 36757 ft | 562 kts | 54° |
| 2026-05-07 12:24 | 45.06847 | -68.33276 | 36754 ft | 566 kts | 54° |
| 2026-05-07 12:24 | 45.11114 | -68.24026 | 36736 ft | 563 kts | 55° |
| 2026-05-07 12:24 | 45.13228 | -68.19432 | 36893 ft | 564 kts | 55° |
| 2026-05-07 12:25 | 45.15374 | -68.14763 | 36749 ft | 564 kts | 55° |
| 2026-05-07 12:25 | 45.19604 | -68.05532 | 36729 ft | 560 kts | 56° |
| 2026-05-07 12:26 | 45.23823 | -67.96299 | 36727 ft | 561 kts | 56° |
| 2026-05-07 12:26 | 45.28037 | -67.87045 | 36732 ft | 560 kts | 56° |
| 2026-05-07 12:27 | 45.32259 | -67.77743 | 36725 ft | 560 kts | 56° |
| 2026-05-07 12:27 | 45.36636 | -67.68676 | 36730 ft | 556 kts | 46° |
| 2026-05-07 12:28 | 45.41798 | -67.60572 | 36738 ft | 555 kts | 44° |
| 2026-05-07 12:28 | 45.46963 | -67.52443 | 36736 ft | 555 kts | 45° |
| 2026-05-07 12:29 | 45.52075 | -67.44257 | 36729 ft | 553 kts | 45° |
| 2026-05-07 12:29 | 45.57134 | -67.36060 | 36735 ft | 556 kts | 46° |
| 2026-05-07 12:30 | 45.62202 | -67.27781 | 36716 ft | 554 kts | 46° |
| 2026-05-07 12:30 | 45.67248 | -67.19493 | 36716 ft | 553 kts | 47° |
| 2026-05-07 12:31 | 45.72293 | -67.11169 | 36720 ft | 555 kts | 47° |
| 2026-05-07 12:31 | 45.77307 | -67.02863 | 36712 ft | 552 kts | 47° |
| 2026-05-07 12:32 | 45.82288 | -66.94582 | 36718 ft | 553 kts | 47° |
| 2026-05-07 12:32 | 45.87267 | -66.86278 | 36715 ft | 551 kts | 47° |
| 2026-05-07 12:33 | 45.94727 | -66.73787 | 36714 ft | 551 kts | 47° |
| 2026-05-07 12:33 | 45.99661 | -66.65494 | 36710 ft | 547 kts | 47° |
| 2026-05-07 12:34 | 46.04583 | -66.57195 | 36711 ft | 548 kts | 47° |
| 2026-05-07 12:34 | 46.09482 | -66.48910 | 36711 ft | 547 kts | 47° |
| 2026-05-07 12:35 | 46.14408 | -66.40556 | 36702 ft | 546 kts | 47° |
| 2026-05-07 12:35 | 46.19287 | -66.32254 | 36695 ft | 546 kts | 49° |
| 2026-05-07 12:36 | 46.24192 | -66.23883 | 36683 ft | 544 kts | 49° |
| 2026-05-07 12:36 | 46.29060 | -66.15552 | 36677 ft | 544 kts | 49° |
| 2026-05-07 12:37 | 46.33913 | -66.07220 | 36690 ft | 545 kts | 49° |
| 2026-05-07 12:37 | 46.38767 | -65.98861 | 36678 ft | 541 kts | 49° |
| 2026-05-07 12:38 | 46.43594 | -65.90524 | 36678 ft | 542 kts | 49° |
| 2026-05-07 12:38 | 46.48407 | -65.82185 | 36668 ft | 541 kts | 49° |
| 2026-05-07 12:39 | 46.53238 | -65.73791 | 36670 ft | 541 kts | 49° |
| 2026-05-07 12:39 | 46.58028 | -65.65440 | 36667 ft | 540 kts | 49° |
| 2026-05-07 12:40 | 46.62803 | -65.57093 | 36669 ft | 542 kts | 49° |
| 2026-05-07 12:40 | 46.67585 | -65.48706 | 36663 ft | 539 kts | 50° |
| 2026-05-07 12:41 | 46.72371 | -65.40288 | 36663 ft | 540 kts | 49° |
| 2026-05-07 12:41 | 46.77127 | -65.31896 | 36650 ft | 539 kts | 50° |
| 2026-05-07 12:42 | 46.81898 | -65.23453 | 36649 ft | 539 kts | 50° |
| 2026-05-07 12:42 | 46.86630 | -65.15051 | 36643 ft | 538 kts | 51° |
| 2026-05-07 12:43 | 46.91396 | -65.06565 | 36650 ft | 539 kts | 50° |
| 2026-05-07 12:43 | 46.96098 | -64.98167 | 36645 ft | 539 kts | 51° |
| 2026-05-07 12:44 | 47.00824 | -64.89697 | 36645 ft | 538 kts | 51° |
| 2026-05-07 12:44 | 47.05542 | -64.81218 | 36645 ft | 538 kts | 51° |
| 2026-05-07 12:45 | 47.10254 | -64.72723 | 36650 ft | 537 kts | 51° |
| 2026-05-07 12:45 | 47.14944 | -64.64241 | 36646 ft | 539 kts | 51° |
| 2026-05-07 12:46 | 47.19638 | -64.55725 | 36642 ft | 538 kts | 51° |
| 2026-05-07 12:46 | 47.24322 | -64.47201 | 36645 ft | 537 kts | 51° |
| 2026-05-07 12:47 | 47.28999 | -64.38664 | 36637 ft | 537 kts | 51° |
| 2026-05-07 12:47 | 47.33662 | -64.30125 | 36636 ft | 537 kts | 52° |
| 2026-05-07 12:48 | 47.38325 | -64.21559 | 36640 ft | 537 kts | 52° |
| 2026-05-07 12:48 | 47.42982 | -64.12980 | 36650 ft | 536 kts | 53° |
| 2026-05-07 12:49 | 47.47622 | -64.04402 | 36628 ft | 536 kts | 53° |
| 2026-05-07 12:49 | 47.52258 | -63.95806 | 36644 ft | 538 kts | 53° |
| 2026-05-07 12:50 | 47.56901 | -63.87169 | 36640 ft | 536 kts | 53° |
| 2026-05-07 12:50 | 47.61515 | -63.78558 | 36647 ft | 537 kts | 53° |
| 2026-05-07 12:51 | 47.66122 | -63.69935 | 36650 ft | 537 kts | 53° |
| 2026-05-07 12:51 | 47.70737 | -63.61267 | 36645 ft | 536 kts | 53° |
| 2026-05-07 12:52 | 47.75337 | -63.52602 | 36651 ft | 537 kts | 53° |
| 2026-05-07 12:52 | 47.79898 | -63.43983 | 36648 ft | 532 kts | 53° |
| 2026-05-07 12:53 | 47.84494 | -63.35269 | 36643 ft | 536 kts | 53° |
| 2026-05-07 12:53 | 47.89069 | -63.26567 | 36648 ft | 534 kts | 54° |
| 2026-05-07 12:54 | 47.93626 | -63.17872 | 36651 ft | 535 kts | 54° |
| 2026-05-07 12:54 | 47.98173 | -63.09167 | 36646 ft | 534 kts | 54° |
| 2026-05-07 12:55 | 48.02712 | -63.00452 | 36654 ft | 533 kts | 54° |
| 2026-05-07 12:55 | 48.07230 | -62.91746 | 36657 ft | 534 kts | 54° |
| 2026-05-07 12:56 | 48.11752 | -62.83007 | 36643 ft | 533 kts | 54° |
| 2026-05-07 12:56 | 48.16260 | -62.74264 | 36649 ft | 533 kts | 54° |
| 2026-05-07 12:57 | 48.20758 | -62.65513 | 36652 ft | 533 kts | 54° |
| 2026-05-07 12:57 | 48.25259 | -62.56730 | 36668 ft | 534 kts | 54° |
| 2026-05-07 12:58 | 48.29766 | -62.47906 | 36681 ft | 533 kts | 54° |
| 2026-05-07 12:58 | 48.31993 | -62.43534 | 36481 ft | 532 kts | 54° |
| 2026-05-07 12:58 | 48.34249 | -62.39099 | 36775 ft | 537 kts | 54° |
| 2026-05-07 12:59 | 48.36507 | -62.34651 | 36492 ft | 534 kts | 55° |
| 2026-05-07 12:59 | 48.38734 | -62.30260 | 36662 ft | 533 kts | 55° |
| 2026-05-07 12:59 | 48.43248 | -62.21334 | 36691 ft | 538 kts | 55° |
| 2026-05-07 13:00 | 48.47753 | -62.12397 | 36697 ft | 537 kts | 55° |
| 2026-05-07 13:00 | 48.52229 | -62.03488 | 36708 ft | 538 kts | 55° |
| 2026-05-07 13:01 | 48.56733 | -61.94493 | 36714 ft | 536 kts | 55° |
| 2026-05-07 13:01 | 48.61216 | -61.85511 | 36730 ft | 538 kts | 55° |
| 2026-05-07 13:02 | 48.65680 | -61.76538 | 36745 ft | 535 kts | 55° |
| 2026-05-07 13:02 | 48.70137 | -61.67547 | 36724 ft | 537 kts | 55° |
| 2026-05-07 13:03 | 48.74608 | -61.58498 | 36740 ft | 536 kts | 55° |
| 2026-05-07 13:03 | 48.79039 | -61.49501 | 36752 ft | 536 kts | 55° |
| 2026-05-07 13:04 | 48.83468 | -61.40476 | 36767 ft | 536 kts | 56° |
| 2026-05-07 13:04 | 48.87894 | -61.31427 | 36766 ft | 537 kts | 56° |
| 2026-05-07 13:05 | 48.92311 | -61.22369 | 36785 ft | 534 kts | 56° |
| 2026-05-07 13:05 | 48.96724 | -61.13284 | 36778 ft | 536 kts | 57° |
| 2026-05-07 13:06 | 49.01126 | -61.04195 | 36787 ft | 535 kts | 57° |
| 2026-05-07 13:06 | 49.05512 | -60.95105 | 36789 ft | 534 kts | 57° |
| 2026-05-07 13:07 | 49.09916 | -60.85947 | 36798 ft | 536 kts | 57° |
| 2026-05-07 13:07 | 49.14288 | -60.76828 | 36780 ft | 535 kts | 57° |
| 2026-05-07 13:08 | 49.18649 | -60.67697 | 36797 ft | 535 kts | 57° |
| 2026-05-07 13:08 | 49.23027 | -60.58501 | 36791 ft | 535 kts | 57° |
| 2026-05-07 13:09 | 49.27388 | -60.49307 | 36797 ft | 536 kts | 57° |
| 2026-05-07 13:09 | 49.31721 | -60.40141 | 36811 ft | 536 kts | 56° |
| 2026-05-07 13:10 | 49.36095 | -60.30857 | 36812 ft | 536 kts | 57° |
| 2026-05-07 13:10 | 49.40436 | -60.21612 | 36812 ft | 537 kts | 57° |
| 2026-05-07 13:11 | 49.44754 | -60.12386 | 36822 ft | 533 kts | 57° |
| 2026-05-07 13:11 | 49.49089 | -60.03086 | 36833 ft | 536 kts | 57° |
| 2026-05-07 13:12 | 49.53391 | -59.93828 | 36822 ft | 535 kts | 57° |
| 2026-05-07 13:12 | 49.57691 | -59.84542 | 36829 ft | 535 kts | 57° |
| 2026-05-07 13:13 | 49.61995 | -59.75213 | 36847 ft | 536 kts | 57° |
| 2026-05-07 13:13 | 49.66269 | -59.65918 | 36852 ft | 535 kts | 57° |
| 2026-05-07 13:14 | 49.70554 | -59.56566 | 36848 ft | 534 kts | 57° |
| 2026-05-07 13:14 | 49.74832 | -59.47196 | 36850 ft | 536 kts | 57° |
| 2026-05-07 13:15 | 49.79094 | -59.37829 | 36849 ft | 537 kts | 57° |
| 2026-05-07 13:15 | 49.83369 | -59.28401 | 36862 ft | 535 kts | 58° |
| 2026-05-07 13:16 | 49.87623 | -59.18983 | 36865 ft | 538 kts | 58° |
| 2026-05-07 13:16 | 49.91875 | -59.09539 | 36875 ft | 536 kts | 58° |
| 2026-05-07 13:17 | 49.96117 | -59.00080 | 36884 ft | 537 kts | 58° |
| 2026-05-07 13:17 | 50.00362 | -58.90582 | 36871 ft | 536 kts | 58° |
| 2026-05-07 13:18 | 50.04598 | -58.81071 | 36882 ft | 535 kts | 58° |
| 2026-05-07 13:18 | 50.08806 | -58.71586 | 36879 ft | 537 kts | 58° |
| 2026-05-07 13:19 | 50.13024 | -58.62048 | 36870 ft | 535 kts | 58° |
| 2026-05-07 13:19 | 50.17217 | -58.52531 | 36863 ft | 535 kts | 58° |
| 2026-05-07 13:20 | 50.21409 | -58.42981 | 36864 ft | 535 kts | 58° |
| 2026-05-07 13:20 | 50.25596 | -58.33408 | 36872 ft | 534 kts | 59° |
| 2026-05-07 13:21 | 50.29783 | -58.23798 | 36871 ft | 535 kts | 59° |
| 2026-05-07 13:21 | 50.33937 | -58.14232 | 36871 ft | 535 kts | 59° |
| 2026-05-07 13:22 | 50.38089 | -58.04634 | 36872 ft | 534 kts | 59° |
| 2026-05-07 13:22 | 50.42200 | -57.95098 | 36873 ft | 534 kts | 59° |
| 2026-05-07 13:23 | 50.46361 | -57.85409 | 36879 ft | 534 kts | 59° |
| 2026-05-07 13:23 | 50.50480 | -57.75780 | 36885 ft | 535 kts | 59° |
| 2026-05-07 13:24 | 50.54604 | -57.66107 | 36897 ft | 536 kts | 59° |
| 2026-05-07 13:24 | 50.58739 | -57.56372 | 36894 ft | 536 kts | 59° |
| 2026-05-07 13:25 | 50.62830 | -57.46704 | 36909 ft | 536 kts | 59° |
| 2026-05-07 13:25 | 50.66949 | -57.36932 | 36904 ft | 538 kts | 59° |
| 2026-05-07 13:26 | 50.71067 | -57.27130 | 36898 ft | 538 kts | 60° |
| 2026-05-07 13:26 | 50.75163 | -57.17342 | 36895 ft | 537 kts | 60° |
| 2026-05-07 13:27 | 50.79252 | -57.07534 | 36899 ft | 537 kts | 60° |
| 2026-05-07 13:27 | 50.83343 | -56.97682 | 36898 ft | 539 kts | 60° |
| 2026-05-07 13:28 | 50.87439 | -56.87784 | 36896 ft | 538 kts | 60° |
| 2026-05-07 13:28 | 50.91516 | -56.77891 | 36898 ft | 538 kts | 60° |
| 2026-05-07 13:29 | 50.95594 | -56.67961 | 36916 ft | 538 kts | 60° |
| 2026-05-07 13:29 | 50.99640 | -56.58069 | 36913 ft | 538 kts | 60° |
| 2026-05-07 13:30 | 51.03695 | -56.48116 | 36918 ft | 540 kts | 60° |
| 2026-05-07 13:30 | 51.07763 | -56.38094 | 36926 ft | 540 kts | 60° |
| 2026-05-07 13:31 | 51.11805 | -56.28099 | 36911 ft | 540 kts | 60° |
| 2026-05-07 13:31 | 51.15847 | -56.18064 | 36924 ft | 539 kts | 60° |
| 2026-05-07 13:32 | 51.19875 | -56.08024 | 36927 ft | 541 kts | 60° |
| 2026-05-07 13:32 | 51.23905 | -55.97941 | 36932 ft | 541 kts | 60° |
| 2026-05-07 13:33 | 51.27927 | -55.87840 | 36947 ft | 541 kts | 60° |
| 2026-05-07 13:33 | 51.31935 | -55.77733 | 36952 ft | 541 kts | 60° |
| 2026-05-07 13:34 | 51.37925 | -55.62552 | 36958 ft | 541 kts | 60° |
| 2026-05-07 13:35 | 51.41949 | -55.52303 | 36954 ft | 543 kts | 60° |
| 2026-05-07 13:35 | 51.45929 | -55.42130 | 36964 ft | 541 kts | 60° |
| 2026-05-07 13:36 | 51.49896 | -55.31949 | 36958 ft | 542 kts | 61° |
| 2026-05-07 13:36 | 51.53867 | -55.21712 | 36964 ft | 543 kts | 61° |
| 2026-05-07 13:37 | 51.57852 | -55.11403 | 36966 ft | 542 kts | 61° |
| 2026-05-07 13:37 | 51.61789 | -55.01176 | 36977 ft | 543 kts | 61° |
| 2026-05-07 13:38 | 51.65762 | -54.90812 | 36975 ft | 545 kts | 61° |
| 2026-05-07 13:38 | 51.69700 | -54.80500 | 36984 ft | 544 kts | 60° |
| 2026-05-07 13:39 | 51.73635 | -54.70153 | 36985 ft | 544 kts | 61° |
| 2026-05-07 13:39 | 51.77549 | -54.59820 | 36992 ft | 543 kts | 61° |
| 2026-05-07 13:40 | 51.81071 | -54.49106 | 36988 ft | 543 kts | 66° |
| 2026-05-07 13:40 | 51.84325 | -54.38145 | 36995 ft | 540 kts | 67° |
| 2026-05-07 13:41 | 51.87527 | -54.27194 | 36984 ft | 540 kts | 68° |
| 2026-05-07 13:41 | 51.90689 | -54.16276 | 36993 ft | 539 kts | 68° |
| 2026-05-07 13:42 | 51.93844 | -54.05296 | 36991 ft | 540 kts | 68° |
| 2026-05-07 13:42 | 51.97003 | -53.94236 | 36997 ft | 541 kts | 68° |
| 2026-05-07 13:43 | 52.00117 | -53.83273 | 37004 ft | 539 kts | 68° |
| 2026-05-07 13:43 | 52.03251 | -53.72180 | 37004 ft | 541 kts | 68° |
| 2026-05-07 13:44 | 52.06340 | -53.61191 | 37016 ft | 538 kts | 68° |
| 2026-05-07 13:44 | 52.09437 | -53.50118 | 37016 ft | 543 kts | 68° |
| 2026-05-07 13:45 | 52.12533 | -53.38997 | 36998 ft | 541 kts | 67° |
| 2026-05-07 13:45 | 52.15605 | -53.27912 | 37003 ft | 539 kts | 68° |
| 2026-05-07 13:46 | 52.18677 | -53.16768 | 37001 ft | 540 kts | 68° |
| 2026-05-07 13:46 | 52.21744 | -53.05588 | 37015 ft | 541 kts | 68° |
| 2026-05-07 13:47 | 52.24788 | -52.94442 | 37012 ft | 542 kts | 68° |
| 2026-05-07 13:47 | 52.27827 | -52.83261 | 37018 ft | 540 kts | 68° |
| 2026-05-07 13:48 | 52.30861 | -52.72042 | 37026 ft | 539 kts | 68° |
| 2026-05-07 13:48 | 52.33866 | -52.60876 | 37032 ft | 539 kts | 68° |
| 2026-05-07 13:49 | 52.36865 | -52.49677 | 37031 ft | 538 kts | 68° |
| 2026-05-07 13:49 | 52.39831 | -52.38549 | 37041 ft | 539 kts | 68° |
| 2026-05-07 13:50 | 52.42789 | -52.27394 | 37036 ft | 535 kts | 68° |
| 2026-05-07 13:50 | 52.45748 | -52.16182 | 37037 ft | 537 kts | 68° |
| 2026-05-07 13:51 | 52.48676 | -52.05033 | 37045 ft | 535 kts | 68° |
| 2026-05-07 13:51 | 52.51589 | -51.93885 | 37042 ft | 535 kts | 68° |
| 2026-05-07 13:51 | 52.53053 | -51.88262 | 37400 ft | 535 kts | 68° |
| 2026-05-07 13:52 | 52.54498 | -51.82699 | 37150 ft | 535 kts | 68° |
| 2026-05-07 13:52 | 52.57384 | -51.71547 | 37060 ft | 529 kts | 68° |
| 2026-05-07 13:53 | 52.60257 | -51.60388 | 37058 ft | 531 kts | 68° |
| 2026-05-07 13:53 | 52.63094 | -51.49313 | 37060 ft | 532 kts | 67° |
| 2026-05-07 13:54 | 52.65948 | -51.38118 | 37060 ft | 529 kts | 67° |
| 2026-05-07 13:54 | 52.68769 | -51.26997 | 37058 ft | 529 kts | 68° |
| 2026-05-07 13:55 | 52.71579 | -51.15866 | 37060 ft | 529 kts | 68° |
| 2026-05-07 13:55 | 52.74368 | -51.04761 | 37062 ft | 527 kts | 68° |
| 2026-05-07 13:56 | 52.77163 | -50.93577 | 37059 ft | 528 kts | 68° |
| 2026-05-07 13:56 | 52.79932 | -50.82437 | 37063 ft | 527 kts | 68° |
| 2026-05-07 13:57 | 52.82692 | -50.71280 | 37068 ft | 525 kts | 68° |
| 2026-05-07 13:57 | 52.85430 | -50.60158 | 37062 ft | 527 kts | 68° |
| 2026-05-07 13:58 | 52.88184 | -50.48911 | 37065 ft | 525 kts | 68° |
| 2026-05-07 13:58 | 52.90900 | -50.37763 | 37072 ft | 524 kts | 68° |
| 2026-05-07 13:59 | 52.93599 | -50.26627 | 37060 ft | 526 kts | 68° |
| 2026-05-07 13:59 | 52.96299 | -50.15430 | 37071 ft | 522 kts | 68° |
| 2026-05-07 14:00 | 52.98983 | -50.04245 | 37069 ft | 523 kts | 69° |
| 2026-05-07 14:00 | 53.00979 | -49.92771 | 37069 ft | 523 kts | 77° |
| 2026-05-07 14:01 | 53.02694 | -49.81050 | 37077 ft | 521 kts | 77° |
| 2026-05-07 14:01 | 53.04366 | -49.69435 | 37091 ft | 521 kts | 77° |
| 2026-05-07 14:02 | 53.06027 | -49.57758 | 37085 ft | 521 kts | 77° |
| 2026-05-07 14:02 | 53.07676 | -49.46050 | 37092 ft | 519 kts | 77° |
| 2026-05-07 14:03 | 53.09296 | -49.34450 | 37096 ft | 517 kts | 77° |
| 2026-05-07 14:03 | 53.10899 | -49.22868 | 37093 ft | 517 kts | 77° |
| 2026-05-07 14:04 | 53.12499 | -49.11221 | 37097 ft | 516 kts | 77° |
| 2026-05-07 14:04 | 53.14074 | -48.99649 | 37104 ft | 516 kts | 77° |
| 2026-05-07 14:05 | 53.15638 | -48.88075 | 37097 ft | 514 kts | 77° |
| 2026-05-07 14:05 | 53.17195 | -48.76455 | 37117 ft | 516 kts | 77° |
| 2026-05-07 14:06 | 53.18733 | -48.64893 | 37104 ft | 514 kts | 77° |
| 2026-05-07 14:06 | 53.20270 | -48.53238 | 37113 ft | 514 kts | 77° |
| 2026-05-07 14:07 | 53.21783 | -48.41670 | 37109 ft | 513 kts | 77° |
| 2026-05-07 14:07 | 53.23293 | -48.30040 | 37109 ft | 516 kts | 77° |
| 2026-05-07 14:08 | 53.24781 | -48.18478 | 37107 ft | 514 kts | 77° |
| 2026-05-07 14:08 | 53.26273 | -48.06786 | 37116 ft | 513 kts | 77° |
| 2026-05-07 14:09 | 53.27733 | -47.95248 | 37105 ft | 512 kts | 77° |
| 2026-05-07 14:09 | 53.29190 | -47.83640 | 37115 ft | 512 kts | 77° |
| 2026-05-07 14:10 | 53.30630 | -47.72075 | 37117 ft | 510 kts | 77° |
| 2026-05-07 14:10 | 53.32058 | -47.60500 | 37120 ft | 511 kts | 77° |
| 2026-05-07 14:11 | 53.33484 | -47.48848 | 37126 ft | 510 kts | 77° |
| 2026-05-07 14:11 | 53.34884 | -47.37310 | 37128 ft | 510 kts | 77° |
| 2026-05-07 14:12 | 53.36275 | -47.25747 | 37126 ft | 509 kts | 77° |
| 2026-05-07 14:12 | 53.37659 | -47.14135 | 37132 ft | 509 kts | 77° |
| 2026-05-07 14:13 | 53.39018 | -47.02632 | 37138 ft | 507 kts | 77° |
| 2026-05-07 14:13 | 53.40378 | -46.91027 | 37142 ft | 508 kts | 77° |
| 2026-05-07 14:14 | 53.41718 | -46.79481 | 37143 ft | 508 kts | 77° |
| 2026-05-07 14:14 | 53.43050 | -46.67912 | 37145 ft | 508 kts | 77° |
| 2026-05-07 14:15 | 53.44362 | -46.56405 | 37149 ft | 506 kts | 77° |
| 2026-05-07 14:15 | 53.45669 | -46.44831 | 37151 ft | 507 kts | 77° |
| 2026-05-07 14:16 | 53.46966 | -46.33251 | 37150 ft | 507 kts | 78° |
| 2026-05-07 14:16 | 53.48251 | -46.21669 | 37148 ft | 506 kts | 77° |
| 2026-05-07 14:17 | 53.49526 | -46.10062 | 37151 ft | 507 kts | 77° |
| 2026-05-07 14:17 | 53.50779 | -45.98546 | 37152 ft | 504 kts | 77° |
| 2026-05-07 14:18 | 53.52024 | -45.87007 | 37152 ft | 506 kts | 77° |
| 2026-05-07 14:18 | 53.53266 | -45.75375 | 37153 ft | 506 kts | 77° |
| 2026-05-07 14:19 | 53.54483 | -45.63871 | 37154 ft | 504 kts | 77° |
| 2026-05-07 14:19 | 53.55698 | -45.52275 | 37155 ft | 503 kts | 77° |
| 2026-05-07 14:20 | 53.56899 | -45.40695 | 37155 ft | 504 kts | 77° |
| 2026-05-07 14:20 | 53.58082 | -45.29172 | 37149 ft | 504 kts | 78° |
| 2026-05-07 14:21 | 53.59256 | -45.17633 | 37151 ft | 505 kts | 78° |
| 2026-05-07 14:21 | 53.60416 | -45.06109 | 37151 ft | 501 kts | 78° |
| 2026-05-07 14:22 | 53.61566 | -44.94564 | 37152 ft | 503 kts | 78° |
| 2026-05-07 14:22 | 53.62706 | -44.83011 | 37155 ft | 503 kts | 78° |
| 2026-05-07 14:23 | 53.63835 | -44.71441 | 37159 ft | 503 kts | 77° |
| 2026-05-07 14:23 | 53.64957 | -44.59835 | 37162 ft | 502 kts | 77° |
| 2026-05-07 14:24 | 53.66061 | -44.48278 | 37162 ft | 503 kts | 77° |
| 2026-05-07 14:24 | 53.67161 | -44.36645 | 37167 ft | 503 kts | 77° |
| 2026-05-07 14:25 | 53.68248 | -44.25035 | 37162 ft | 503 kts | 78° |
| 2026-05-07 14:25 | 53.69324 | -44.13406 | 37161 ft | 504 kts | 78° |
| 2026-05-07 14:26 | 53.70388 | -44.01776 | 37162 ft | 504 kts | 78° |
| 2026-05-07 14:26 | 53.71442 | -43.90132 | 37168 ft | 504 kts | 78° |
| 2026-05-07 14:27 | 53.72482 | -43.78506 | 37167 ft | 504 kts | 78° |
| 2026-05-07 14:27 | 53.73513 | -43.66853 | 37174 ft | 503 kts | 78° |
| 2026-05-07 14:28 | 53.74529 | -43.55242 | 37180 ft | 504 kts | 78° |
| 2026-05-07 14:28 | 53.75536 | -43.43593 | 37185 ft | 503 kts | 77° |
| 2026-05-07 14:29 | 53.76533 | -43.31934 | 37181 ft | 503 kts | 78° |
| 2026-05-07 14:29 | 53.77512 | -43.20329 | 37182 ft | 502 kts | 78° |
| 2026-05-07 14:29 | 53.77998 | -43.14526 | 36863 ft | 502 kts | 78° |
| 2026-05-07 14:30 | 53.78480 | -43.08726 | 37418 ft | 503 kts | 78° |
| 2026-05-07 14:30 | 53.78965 | -43.02872 | 36891 ft | 505 kts | 78° |
| 2026-05-07 14:30 | 53.79445 | -42.97016 | 37191 ft | 501 kts | 78° |
| 2026-05-07 14:31 | 53.80401 | -42.85293 | 37192 ft | 505 kts | 78° |
| 2026-05-07 14:31 | 53.81339 | -42.73612 | 37197 ft | 503 kts | 78° |
| 2026-05-07 14:32 | 53.82265 | -42.61953 | 37200 ft | 505 kts | 78° |
| 2026-05-07 14:32 | 53.83187 | -42.50188 | 37210 ft | 503 kts | 77° |
| 2026-05-07 14:33 | 53.84097 | -42.38435 | 37211 ft | 506 kts | 77° |
| 2026-05-07 14:33 | 53.84993 | -42.26706 | 37210 ft | 505 kts | 78° |
| 2026-05-07 14:34 | 53.85880 | -42.14939 | 37206 ft | 506 kts | 78° |
| 2026-05-07 14:34 | 53.86754 | -42.03182 | 37213 ft | 506 kts | 78° |
| 2026-05-07 14:35 | 53.87617 | -41.91418 | 37212 ft | 506 kts | 78° |
| 2026-05-07 14:35 | 53.88473 | -41.79579 | 37213 ft | 507 kts | 78° |
| 2026-05-07 14:36 | 53.89311 | -41.67828 | 37214 ft | 505 kts | 78° |
| 2026-05-07 14:36 | 53.90136 | -41.56098 | 37224 ft | 506 kts | 78° |
| 2026-05-07 14:37 | 53.90956 | -41.44270 | 37223 ft | 506 kts | 78° |
| 2026-05-07 14:37 | 53.92165 | -41.26517 | 37222 ft | 509 kts | 78° |
| 2026-05-07 14:38 | 53.92955 | -41.14685 | 37225 ft | 507 kts | 78° |
| 2026-05-07 14:38 | 53.93734 | -41.02825 | 37233 ft | 507 kts | 78° |
| 2026-05-07 14:39 | 53.94503 | -40.90974 | 37231 ft | 509 kts | 78° |
| 2026-05-07 14:39 | 53.95252 | -40.79209 | 37232 ft | 506 kts | 78° |
| 2026-05-07 14:40 | 53.95998 | -40.67334 | 37238 ft | 505 kts | 78° |
| 2026-05-07 14:40 | 53.96724 | -40.55559 | 37236 ft | 504 kts | 77° |
| 2026-05-07 14:41 | 53.97443 | -40.43753 | 37247 ft | 505 kts | 78° |
| 2026-05-07 14:41 | 53.98149 | -40.31934 | 37237 ft | 504 kts | 78° |
| 2026-05-07 14:42 | 53.98842 | -40.20144 | 37238 ft | 505 kts | 78° |
| 2026-05-07 14:42 | 53.99522 | -40.08366 | 37249 ft | 504 kts | 78° |
| 2026-05-07 14:43 | 54.00225 | -39.96591 | 37244 ft | 499 kts | 74° |
| 2026-05-07 14:43 | 54.01843 | -39.85290 | 37246 ft | 494 kts | 68° |
| 2026-05-07 14:44 | 54.03576 | -39.74027 | 37250 ft | 494 kts | 69° |
| 2026-05-07 14:44 | 54.05249 | -39.62701 | 37255 ft | 494 kts | 69° |
| 2026-05-07 14:45 | 54.06869 | -39.51438 | 37259 ft | 493 kts | 69° |
| 2026-05-07 14:45 | 54.08468 | -39.40118 | 37267 ft | 494 kts | 69° |
| 2026-05-07 14:46 | 54.10038 | -39.28859 | 37260 ft | 494 kts | 70° |
| 2026-05-07 14:46 | 54.11600 | -39.17541 | 37277 ft | 492 kts | 70° |
| 2026-05-07 14:47 | 54.13150 | -39.06206 | 37279 ft | 493 kts | 70° |
| 2026-05-07 14:47 | 54.14688 | -38.94853 | 37278 ft | 494 kts | 70° |
| 2026-05-07 14:48 | 54.16216 | -38.83485 | 37280 ft | 491 kts | 70° |
| 2026-05-07 14:48 | 54.17722 | -38.72203 | 37279 ft | 493 kts | 69° |
| 2026-05-07 14:49 | 54.19215 | -38.60907 | 37285 ft | 489 kts | 69° |
| 2026-05-07 14:49 | 54.20708 | -38.49544 | 37284 ft | 490 kts | 69° |
| 2026-05-07 14:50 | 54.22177 | -38.38266 | 37284 ft | 491 kts | 69° |
| 2026-05-07 14:50 | 54.23645 | -38.26905 | 37286 ft | 491 kts | 70° |
| 2026-05-07 14:51 | 54.25100 | -38.15550 | 37283 ft | 491 kts | 70° |
| 2026-05-07 14:51 | 54.26537 | -38.04245 | 37288 ft | 487 kts | 70° |
| 2026-05-07 14:52 | 54.27963 | -37.92945 | 37281 ft | 489 kts | 70° |
| 2026-05-07 14:52 | 54.29379 | -37.81622 | 37289 ft | 488 kts | 70° |
| 2026-05-07 14:53 | 54.30787 | -37.70280 | 37291 ft | 490 kts | 70° |
| 2026-05-07 14:53 | 54.32185 | -37.58914 | 37285 ft | 489 kts | 70° |
| 2026-05-07 14:54 | 54.33569 | -37.47577 | 37287 ft | 489 kts | 70° |
| 2026-05-07 14:54 | 54.34941 | -37.36237 | 37290 ft | 490 kts | 70° |
| 2026-05-07 14:55 | 54.36312 | -37.24817 | 37272 ft | 491 kts | 71° |
| 2026-05-07 14:55 | 54.37670 | -37.13407 | 37283 ft | 491 kts | 71° |
| 2026-05-07 14:56 | 54.39020 | -37.01956 | 37286 ft | 491 kts | 71° |
| 2026-05-07 14:56 | 54.40352 | -36.90561 | 37283 ft | 489 kts | 71° |
| 2026-05-07 14:57 | 54.41686 | -36.79056 | 37289 ft | 491 kts | 71° |
| 2026-05-07 14:57 | 54.42989 | -36.67699 | 37289 ft | 488 kts | 71° |
| 2026-05-07 14:58 | 54.44294 | -36.56257 | 37290 ft | 492 kts | 71° |
| 2026-05-07 14:58 | 54.45588 | -36.44787 | 37291 ft | 492 kts | 71° |
| 2026-05-07 14:59 | 54.46870 | -36.33314 | 37272 ft | 488 kts | 72° |
| 2026-05-07 14:59 | 54.48144 | -36.21838 | 37274 ft | 492 kts | 72° |
| 2026-05-07 15:00 | 54.49402 | -36.10372 | 37292 ft | 492 kts | 72° |
| 2026-05-07 15:00 | 54.50652 | -35.98877 | 37295 ft | 491 kts | 72° |
| 2026-05-07 15:01 | 54.51893 | -35.87372 | 37282 ft | 491 kts | 72° |
| 2026-05-07 15:01 | 54.53116 | -35.75908 | 37287 ft | 490 kts | 72° |
| 2026-05-07 15:02 | 54.54343 | -35.64316 | 37292 ft | 493 kts | 72° |
| 2026-05-07 15:02 | 54.55547 | -35.52813 | 37282 ft | 491 kts | 72° |
| 2026-05-07 15:03 | 54.56746 | -35.41256 | 37261 ft | 491 kts | 72° |
| 2026-05-07 15:03 | 54.57927 | -35.29756 | 37273 ft | 491 kts | 72° |
| 2026-05-07 15:04 | 54.59107 | -35.18161 | 37261 ft | 493 kts | 72° |
| 2026-05-07 15:04 | 54.60271 | -35.06594 | 37254 ft | 492 kts | 73° |
| 2026-05-07 15:05 | 54.61435 | -34.94926 | 37263 ft | 493 kts | 73° |
| 2026-05-07 15:05 | 54.62577 | -34.83338 | 37276 ft | 492 kts | 72° |
| 2026-05-07 15:06 | 54.63714 | -34.71718 | 37280 ft | 495 kts | 73° |
| 2026-05-07 15:06 | 54.64830 | -34.60144 | 37269 ft | 493 kts | 73° |
| 2026-05-07 15:07 | 54.65948 | -34.48461 | 37272 ft | 495 kts | 72° |
| 2026-05-07 15:07 | 54.67051 | -34.36811 | 37274 ft | 495 kts | 72° |
| 2026-05-07 15:08 | 54.68139 | -34.25183 | 37273 ft | 494 kts | 73° |
| 2026-05-07 15:08 | 54.69225 | -34.13454 | 37271 ft | 495 kts | 73° |
| 2026-05-07 15:09 | 54.70289 | -34.01828 | 37271 ft | 493 kts | 73° |
| 2026-05-07 15:09 | 54.71355 | -33.90070 | 37274 ft | 494 kts | 73° |
| 2026-05-07 15:10 | 54.72401 | -33.78394 | 37286 ft | 496 kts | 74° |
| 2026-05-07 15:10 | 54.73439 | -33.66666 | 37284 ft | 493 kts | 74° |
| 2026-05-07 15:11 | 54.74464 | -33.54965 | 37271 ft | 497 kts | 74° |
| 2026-05-07 15:11 | 54.75488 | -33.43137 | 37267 ft | 499 kts | 73° |
| 2026-05-07 15:12 | 54.76495 | -33.31346 | 37272 ft | 497 kts | 75° |
| 2026-05-07 15:12 | 54.77495 | -33.19529 | 37257 ft | 500 kts | 75° |
| 2026-05-07 15:13 | 54.78483 | -33.07683 | 37275 ft | 498 kts | 75° |
| 2026-05-07 15:13 | 54.79460 | -32.95838 | 37231 ft | 499 kts | 74° |
| 2026-05-07 15:14 | 54.80430 | -32.83947 | 37236 ft | 501 kts | 75° |
| 2026-05-07 15:14 | 54.81384 | -32.72076 | 37252 ft | 502 kts | 75° |
| 2026-05-07 15:15 | 54.82337 | -32.60083 | 37275 ft | 502 kts | 75° |
| 2026-05-07 15:15 | 54.83263 | -32.48259 | 37259 ft | 502 kts | 75° |
| 2026-05-07 15:16 | 54.84190 | -32.36294 | 37243 ft | 502 kts | 75° |
| 2026-05-07 15:16 | 54.85106 | -32.24296 | 37244 ft | 502 kts | 75° |
| 2026-05-07 15:17 | 54.86002 | -32.12402 | 37237 ft | 502 kts | 75° |
| 2026-05-07 15:17 | 54.86895 | -32.00403 | 37230 ft | 501 kts | 76° |
| 2026-05-07 15:18 | 54.87767 | -31.88502 | 37253 ft | 500 kts | 75° |
| 2026-05-07 15:18 | 54.88629 | -31.76580 | 37237 ft | 500 kts | 75° |
| 2026-05-07 15:19 | 54.89482 | -31.64630 | 37245 ft | 500 kts | 75° |
| 2026-05-07 15:19 | 54.90319 | -31.52717 | 37254 ft | 500 kts | 75° |
| 2026-05-07 15:20 | 54.91151 | -31.40728 | 37242 ft | 501 kts | 75° |
| 2026-05-07 15:20 | 54.91966 | -31.28786 | 37244 ft | 500 kts | 76° |
| 2026-05-07 15:21 | 54.92371 | -31.22796 | 37385 ft | 501 kts | 76° |
| 2026-05-07 15:21 | 54.92769 | -31.16852 | 37291 ft | 501 kts | 76° |
| 2026-05-07 15:21 | 54.93559 | -31.04905 | 37237 ft | 497 kts | 76° |
| 2026-05-07 15:22 | 54.94335 | -30.93038 | 37238 ft | 500 kts | 76° |
| 2026-05-07 15:22 | 54.95103 | -30.81078 | 37260 ft | 498 kts | 76° |
| 2026-05-07 15:23 | 54.95855 | -30.69216 | 37251 ft | 500 kts | 76° |
| 2026-05-07 15:23 | 54.96598 | -30.57267 | 37224 ft | 497 kts | 76° |
| 2026-05-07 15:24 | 54.97332 | -30.45308 | 37227 ft | 501 kts | 76° |
| 2026-05-07 15:24 | 54.98053 | -30.33328 | 37233 ft | 499 kts | 77° |
| 2026-05-07 15:25 | 54.98761 | -30.21395 | 37207 ft | 499 kts | 77° |
| 2026-05-07 15:25 | 54.99459 | -30.09403 | 37220 ft | 501 kts | 77° |
| 2026-05-07 15:26 | 55.00084 | -29.97355 | 37210 ft | 501 kts | 79° |
| 2026-05-07 15:26 | 55.00583 | -29.85317 | 37203 ft | 504 kts | 79° |
| 2026-05-07 15:27 | 55.01062 | -29.73259 | 37240 ft | 503 kts | 79° |
| 2026-05-07 15:27 | 55.01531 | -29.61116 | 37216 ft | 502 kts | 79° |
| 2026-05-07 15:28 | 55.01984 | -29.49052 | 37211 ft | 502 kts | 80° |
| 2026-05-07 15:28 | 55.02424 | -29.36973 | 37211 ft | 503 kts | 80° |
| 2026-05-07 15:29 | 55.02850 | -29.24938 | 37212 ft | 502 kts | 80° |
| 2026-05-07 15:29 | 55.03267 | -29.12817 | 37207 ft | 503 kts | 81° |
| 2026-05-07 15:30 | 55.03675 | -29.00630 | 37189 ft | 505 kts | 81° |
| 2026-05-07 15:30 | 55.04066 | -28.88522 | 37204 ft | 503 kts | 81° |
| 2026-05-07 15:31 | 55.04447 | -28.76415 | 37193 ft | 505 kts | 81° |
| 2026-05-07 15:31 | 55.04814 | -28.64306 | 37200 ft | 502 kts | 81° |
| 2026-05-07 15:32 | 55.05173 | -28.52142 | 37195 ft | 504 kts | 81° |
| 2026-05-07 15:32 | 55.05516 | -28.40021 | 37192 ft | 503 kts | 81° |
| 2026-05-07 15:33 | 55.05849 | -28.27899 | 37186 ft | 504 kts | 82° |
| 2026-05-07 15:33 | 55.06169 | -28.15737 | 37184 ft | 502 kts | 82° |
| 2026-05-07 15:34 | 55.06479 | -28.03556 | 37189 ft | 503 kts | 82° |
| 2026-05-07 15:34 | 55.06775 | -27.91455 | 37181 ft | 504 kts | 83° |
| 2026-05-07 15:35 | 55.07059 | -27.79289 | 37183 ft | 502 kts | 82° |
| 2026-05-07 15:35 | 55.07330 | -27.67171 | 37180 ft | 503 kts | 83° |
| 2026-05-07 15:36 | 55.07589 | -27.55071 | 37178 ft | 502 kts | 83° |
| 2026-05-07 15:36 | 55.07837 | -27.42918 | 37175 ft | 502 kts | 83° |
| 2026-05-07 15:37 | 55.08073 | -27.30767 | 37179 ft | 504 kts | 84° |
| 2026-05-07 15:37 | 55.08297 | -27.18646 | 37170 ft | 503 kts | 84° |
| 2026-05-07 15:38 | 55.08509 | -27.06479 | 37167 ft | 503 kts | 84° |
| 2026-05-07 15:38 | 55.08708 | -26.94360 | 37165 ft | 504 kts | 84° |
| 2026-05-07 15:39 | 55.08896 | -26.82161 | 37162 ft | 503 kts | 84° |
| 2026-05-07 15:39 | 55.09071 | -26.70008 | 37160 ft | 503 kts | 84° |
| 2026-05-07 15:40 | 55.09234 | -26.57870 | 37154 ft | 503 kts | 84° |
| 2026-05-07 15:40 | 55.09385 | -26.45743 | 37145 ft | 503 kts | 84° |
| 2026-05-07 15:41 | 55.09524 | -26.33599 | 37139 ft | 504 kts | 85° |
| 2026-05-07 15:41 | 55.09651 | -26.21423 | 37140 ft | 503 kts | 85° |
| 2026-05-07 15:42 | 55.09766 | -26.09270 | 37128 ft | 503 kts | 85° |
| 2026-05-07 15:42 | 55.09869 | -25.97141 | 37131 ft | 503 kts | 85° |
| 2026-05-07 15:43 | 55.09959 | -25.84963 | 37132 ft | 502 kts | 85° |
| 2026-05-07 15:43 | 55.10038 | -25.72868 | 37138 ft | 503 kts | 86° |
| 2026-05-07 15:44 | 55.10104 | -25.60676 | 37138 ft | 503 kts | 86° |
| 2026-05-07 15:44 | 55.10159 | -25.48525 | 37138 ft | 503 kts | 86° |
| 2026-05-07 15:45 | 55.10200 | -25.36407 | 37139 ft | 503 kts | 86° |
| 2026-05-07 15:45 | 55.10231 | -25.24221 | 37136 ft | 503 kts | 86° |
| 2026-05-07 15:46 | 55.10254 | -25.05955 | 37134 ft | 503 kts | 87° |
| 2026-05-07 15:47 | 55.10254 | -24.93846 | 37136 ft | 503 kts | 87° |
| 2026-05-07 15:47 | 55.10241 | -24.81632 | 37131 ft | 503 kts | 87° |
| 2026-05-07 15:48 | 55.10217 | -24.69495 | 37130 ft | 503 kts | 87° |
| 2026-05-07 15:48 | 55.10180 | -24.57293 | 37123 ft | 503 kts | 87° |
| 2026-05-07 15:49 | 55.10132 | -24.45158 | 37119 ft | 503 kts | 87° |
| 2026-05-07 15:49 | 55.10071 | -24.32978 | 37119 ft | 503 kts | 88° |
| 2026-05-07 15:50 | 55.09999 | -24.20868 | 37112 ft | 504 kts | 88° |
| 2026-05-07 15:50 | 55.09914 | -24.08704 | 37104 ft | 503 kts | 88° |
| 2026-05-07 15:51 | 55.09817 | -23.96555 | 37098 ft | 503 kts | 88° |
| 2026-05-07 15:51 | 55.09708 | -23.84422 | 37093 ft | 503 kts | 88° |
| 2026-05-07 15:52 | 55.09586 | -23.72214 | 37099 ft | 503 kts | 88° |
| 2026-05-07 15:52 | 55.09453 | -23.60053 | 37096 ft | 503 kts | 88° |
| 2026-05-07 15:53 | 55.09307 | -23.47892 | 37097 ft | 503 kts | 89° |
| 2026-05-07 15:53 | 55.09150 | -23.35765 | 37099 ft | 504 kts | 89° |
| 2026-05-07 15:54 | 55.08980 | -23.23562 | 37093 ft | 503 kts | 89° |
| 2026-05-07 15:54 | 55.08799 | -23.11464 | 37093 ft | 504 kts | 90° |
| 2026-05-07 15:55 | 55.08604 | -22.99236 | 37092 ft | 504 kts | 90° |
| 2026-05-07 15:55 | 55.08398 | -22.87077 | 37101 ft | 509 kts | 90° |
| 2026-05-07 15:55 | 55.08289 | -22.80856 | 37235 ft | 514 kts | 90° |
| 2026-05-07 15:56 | 55.08176 | -22.74673 | 37554 ft | 513 kts | 90° |
| 2026-05-07 15:56 | 55.08060 | -22.68522 | 37912 ft | 510 kts | 90° |
| 2026-05-07 15:56 | 55.07941 | -22.62347 | 38257 ft | 509 kts | 90° |
| 2026-05-07 15:56 | 55.07820 | -22.56222 | 38517 ft | 510 kts | 90° |
| 2026-05-07 15:57 | 55.07695 | -22.50051 | 38758 ft | 510 kts | 90° |
| 2026-05-07 15:57 | 55.07567 | -22.43868 | 39034 ft | 510 kts | 90° |
| 2026-05-07 15:57 | 55.07437 | -22.37723 | 39289 ft | 510 kts | 90° |
| 2026-05-07 15:57 | 55.07303 | -22.31578 | 39518 ft | 510 kts | 91° |
| 2026-05-07 15:58 | 55.07167 | -22.25489 | 39700 ft | 510 kts | 91° |
| 2026-05-07 15:58 | 55.07027 | -22.19303 | 39896 ft | 510 kts | 91° |
| 2026-05-07 15:58 | 55.06883 | -22.13136 | 40060 ft | 510 kts | 91° |
| 2026-05-07 15:59 | 55.06588 | -22.00845 | 40076 ft | 510 kts | 91° |
| 2026-05-07 15:59 | 55.06281 | -21.88587 | 40071 ft | 510 kts | 91° |
| 2026-05-07 16:00 | 55.05960 | -21.76288 | 40073 ft | 511 kts | 91° |
| 2026-05-07 16:00 | 55.05626 | -21.63913 | 40068 ft | 511 kts | 91° |
| 2026-05-07 16:01 | 55.05281 | -21.51647 | 40067 ft | 511 kts | 91° |
| 2026-05-07 16:01 | 55.04921 | -21.39274 | 40061 ft | 511 kts | 91° |
| 2026-05-07 16:02 | 55.04552 | -21.26995 | 40062 ft | 511 kts | 92° |
| 2026-05-07 16:02 | 55.04169 | -21.14713 | 40055 ft | 512 kts | 92° |
| 2026-05-07 16:03 | 55.03773 | -21.02369 | 40053 ft | 511 kts | 92° |
| 2026-05-07 16:03 | 55.03364 | -20.90038 | 40047 ft | 512 kts | 92° |
| 2026-05-07 16:04 | 55.02942 | -20.77695 | 40048 ft | 512 kts | 92° |
| 2026-05-07 16:04 | 55.02508 | -20.65366 | 40036 ft | 512 kts | 92° |
| 2026-05-07 16:05 | 55.02063 | -20.53067 | 40037 ft | 513 kts | 92° |
| 2026-05-07 16:05 | 55.01603 | -20.40697 | 40027 ft | 513 kts | 92° |
| 2026-05-07 16:06 | 55.01131 | -20.28357 | 40019 ft | 512 kts | 93° |
| 2026-05-07 16:06 | 55.00647 | -20.16042 | 40021 ft | 512 kts | 93° |
| 2026-05-07 16:07 | 55.00057 | -20.03756 | 40014 ft | 513 kts | 99° |
| 2026-05-07 16:07 | 54.98327 | -19.91778 | 40010 ft | 514 kts | 106° |
| 2026-05-07 16:08 | 54.96341 | -19.79925 | 40012 ft | 512 kts | 107° |
| 2026-05-07 16:08 | 54.94291 | -19.68041 | 40011 ft | 512 kts | 107° |
| 2026-05-07 16:09 | 54.92225 | -19.56304 | 40010 ft | 513 kts | 107° |
| 2026-05-07 16:09 | 54.90125 | -19.44523 | 40012 ft | 512 kts | 107° |
| 2026-05-07 16:10 | 54.88011 | -19.32783 | 40009 ft | 511 kts | 108° |
| 2026-05-07 16:10 | 54.85878 | -19.21037 | 40008 ft | 512 kts | 108° |
| 2026-05-07 16:11 | 54.83744 | -19.09376 | 40008 ft | 511 kts | 108° |
| 2026-05-07 16:11 | 54.81591 | -18.97691 | 40007 ft | 512 kts | 108° |
| 2026-05-07 16:12 | 54.79419 | -18.85975 | 39997 ft | 512 kts | 108° |
| 2026-05-07 16:12 | 54.77245 | -18.74327 | 39997 ft | 512 kts | 108° |
| 2026-05-07 16:13 | 54.75049 | -18.62636 | 39996 ft | 513 kts | 108° |
| 2026-05-07 16:13 | 54.72823 | -18.50861 | 40077 ft | 520 kts | 108° |
| 2026-05-07 16:14 | 54.70560 | -18.38962 | 40235 ft | 524 kts | 108° |
| 2026-05-07 16:14 | 54.69424 | -18.33018 | 40349 ft | 525 kts | 109° |
| 2026-05-07 16:14 | 54.68277 | -18.27035 | 40454 ft | 526 kts | 109° |
| 2026-05-07 16:15 | 54.65994 | -18.15177 | 40644 ft | 527 kts | 109° |
| 2026-05-07 16:15 | 54.63670 | -18.03185 | 40869 ft | 526 kts | 109° |
| 2026-05-07 16:16 | 54.61375 | -17.91410 | 40964 ft | 515 kts | 109° |
| 2026-05-07 16:16 | 54.59106 | -17.79844 | 40963 ft | 510 kts | 109° |
| 2026-05-07 16:17 | 54.56832 | -17.68320 | 40957 ft | 510 kts | 109° |
| 2026-05-07 16:17 | 54.54553 | -17.56840 | 40961 ft | 509 kts | 109° |
| 2026-05-07 16:18 | 54.52254 | -17.45329 | 40951 ft | 510 kts | 109° |
| 2026-05-07 16:18 | 54.49954 | -17.33877 | 40956 ft | 509 kts | 110° |
| 2026-05-07 16:19 | 54.47628 | -17.22365 | 40943 ft | 508 kts | 110° |
| 2026-05-07 16:19 | 54.45321 | -17.11009 | 40945 ft | 509 kts | 110° |
| 2026-05-07 16:20 | 54.42973 | -16.99522 | 40943 ft | 508 kts | 110° |
| 2026-05-07 16:20 | 54.40647 | -16.88204 | 40946 ft | 509 kts | 110° |
| 2026-05-07 16:21 | 54.38283 | -16.76770 | 40946 ft | 509 kts | 110° |
| 2026-05-07 16:21 | 54.35924 | -16.65420 | 40935 ft | 508 kts | 110° |
| 2026-05-07 16:22 | 54.33547 | -16.54054 | 40947 ft | 512 kts | 110° |
| 2026-05-07 16:22 | 54.31121 | -16.42518 | 40969 ft | 516 kts | 110° |
| 2026-05-07 16:23 | 54.28682 | -16.30985 | 40981 ft | 519 kts | 111° |
| 2026-05-07 16:23 | 54.26227 | -16.19443 | 40990 ft | 522 kts | 111° |
| 2026-05-07 16:24 | 54.23740 | -16.07817 | 40997 ft | 524 kts | 111° |
| 2026-05-07 16:24 | 54.21243 | -15.96207 | 41011 ft | 525 kts | 111° |
| 2026-05-07 16:25 | 54.18715 | -15.84519 | 41024 ft | 526 kts | 111° |
| 2026-05-07 16:25 | 54.16187 | -15.72902 | 41034 ft | 526 kts | 111° |
| 2026-05-07 16:26 | 54.13647 | -15.61292 | 41040 ft | 526 kts | 111° |
| 2026-05-07 16:26 | 54.11076 | -15.49607 | 41057 ft | 526 kts | 111° |
| 2026-05-07 16:27 | 54.08509 | -15.38008 | 41066 ft | 526 kts | 111° |
| 2026-05-07 16:27 | 54.05931 | -15.26424 | 41075 ft | 526 kts | 112° |
| 2026-05-07 16:28 | 54.03342 | -15.14851 | 41087 ft | 526 kts | 112° |
| 2026-05-07 16:28 | 54.00808 | -15.03245 | 41082 ft | 526 kts | 107° |
| 2026-05-07 16:29 | 53.99714 | -14.91075 | 41083 ft | 527 kts | 91° |
| 2026-05-07 16:29 | 53.99850 | -14.78653 | 41098 ft | 528 kts | 89° |
| 2026-05-07 16:30 | 53.99968 | -14.66287 | 41119 ft | 528 kts | 89° |
| 2026-05-07 16:30 | 54.00032 | -14.53842 | 41145 ft | 528 kts | 90° |
| 2026-05-07 16:31 | 54.00060 | -14.41472 | 41174 ft | 527 kts | 90° |
| 2026-05-07 16:31 | 54.00062 | -14.29041 | 41185 ft | 527 kts | 91° |
| 2026-05-07 16:32 | 54.00044 | -14.16690 | 41186 ft | 527 kts | 91° |
| 2026-05-07 16:32 | 54.00008 | -14.04233 | 41214 ft | 527 kts | 91° |
| 2026-05-07 16:32 | 53.99982 | -13.98093 | 41213 ft | 513 kts | 92° |
| 2026-05-07 16:33 | 53.99851 | -13.92164 | 41114 ft | 498 kts | 93° |
| 2026-05-07 16:33 | 53.99689 | -13.86381 | 40570 ft | 494 kts | 94° |
| 2026-05-07 16:33 | 53.99525 | -13.80628 | 40044 ft | 492 kts | 94° |
| 2026-05-07 16:33 | 53.99358 | -13.74832 | 39920 ft | 496 kts | 94° |
| 2026-05-07 16:34 | 53.99191 | -13.68994 | 39911 ft | 499 kts | 94° |
| 2026-05-07 16:34 | 53.98848 | -13.57201 | 39912 ft | 505 kts | 94° |
| 2026-05-07 16:35 | 53.98496 | -13.45344 | 39915 ft | 504 kts | 94° |
| 2026-05-07 16:35 | 53.98135 | -13.33541 | 39902 ft | 504 kts | 95° |
| 2026-05-07 16:36 | 53.97765 | -13.21739 | 39915 ft | 503 kts | 95° |
| 2026-05-07 16:36 | 53.97380 | -13.09849 | 39910 ft | 503 kts | 95° |
| 2026-05-07 16:37 | 53.96986 | -12.98049 | 39910 ft | 503 kts | 95° |
| 2026-05-07 16:37 | 53.96581 | -12.86239 | 39904 ft | 502 kts | 95° |
| 2026-05-07 16:38 | 53.96166 | -12.74471 | 39888 ft | 503 kts | 95° |
| 2026-05-07 16:38 | 53.95739 | -12.62699 | 39899 ft | 501 kts | 95° |
| 2026-05-07 16:39 | 53.95299 | -12.50904 | 39896 ft | 502 kts | 95° |
| 2026-05-07 16:39 | 53.94849 | -12.39137 | 39898 ft | 501 kts | 95° |
| 2026-05-07 16:40 | 53.94389 | -12.27418 | 39886 ft | 501 kts | 96° |
| 2026-05-07 16:40 | 53.93916 | -12.15645 | 39903 ft | 501 kts | 96° |
| 2026-05-07 16:41 | 53.93433 | -12.03932 | 39884 ft | 501 kts | 96° |
| 2026-05-07 16:41 | 53.92940 | -11.92226 | 39895 ft | 500 kts | 96° |
| 2026-05-07 16:42 | 53.92433 | -11.80490 | 39895 ft | 500 kts | 96° |
| 2026-05-07 16:42 | 53.91917 | -11.68796 | 39902 ft | 499 kts | 96° |
| 2026-05-07 16:43 | 53.91392 | -11.57152 | 39898 ft | 500 kts | 96° |
| 2026-05-07 16:43 | 53.90851 | -11.45418 | 39897 ft | 499 kts | 96° |
| 2026-05-07 16:44 | 53.90301 | -11.33737 | 39899 ft | 498 kts | 97° |
| 2026-05-07 16:44 | 53.89740 | -11.22086 | 39909 ft | 498 kts | 97° |
| 2026-05-07 16:45 | 53.89166 | -11.10377 | 39910 ft | 499 kts | 97° |
| 2026-05-07 16:45 | 53.88582 | -10.98715 | 39910 ft | 498 kts | 97° |
| 2026-05-07 16:46 | 53.87989 | -10.87092 | 39917 ft | 497 kts | 97° |
| 2026-05-07 16:46 | 53.87384 | -10.75457 | 39914 ft | 497 kts | 97° |
| 2026-05-07 16:47 | 53.86772 | -10.63895 | 39911 ft | 496 kts | 97° |
| 2026-05-07 16:47 | 53.86146 | -10.52298 | 39918 ft | 495 kts | 97° |
| 2026-05-07 16:48 | 53.85510 | -10.40726 | 39918 ft | 495 kts | 97° |
| 2026-05-07 16:48 | 53.84861 | -10.29120 | 39924 ft | 493 kts | 98° |
| 2026-05-07 16:49 | 53.84206 | -10.17600 | 39917 ft | 494 kts | 98° |
| 2026-05-07 16:49 | 53.83540 | -10.06095 | 39923 ft | 493 kts | 98° |
| 2026-05-07 16:50 | 53.82864 | -9.94618 | 39917 ft | 492 kts | 97° |
| 2026-05-07 16:50 | 53.82180 | -9.83187 | 39914 ft | 492 kts | 97° |
| 2026-05-07 16:51 | 53.81481 | -9.71679 | 39911 ft | 492 kts | 97° |
| 2026-05-07 16:51 | 53.80775 | -9.60253 | 39917 ft | 492 kts | 97° |
| 2026-05-07 16:52 | 53.80057 | -9.48808 | 39909 ft | 491 kts | 97° |
| 2026-05-07 16:52 | 53.79326 | -9.37340 | 39923 ft | 491 kts | 97° |
| 2026-05-07 16:53 | 53.78589 | -9.25939 | 39915 ft | 490 kts | 98° |
| 2026-05-07 16:53 | 53.77840 | -9.14532 | 39919 ft | 490 kts | 98° |
| 2026-05-07 16:54 | 53.77079 | -9.03112 | 39912 ft | 489 kts | 98° |
| 2026-05-07 16:54 | 53.76308 | -8.91720 | 39913 ft | 490 kts | 98° |
| 2026-05-07 16:55 | 53.75523 | -8.80265 | 39929 ft | 489 kts | 98° |
| 2026-05-07 16:55 | 53.74727 | -8.68836 | 39907 ft | 495 kts | 98° |
| 2026-05-07 16:56 | 53.73910 | -8.57255 | 39911 ft | 502 kts | 98° |
| 2026-05-07 16:56 | 53.72642 | -8.39607 | 39921 ft | 509 kts | 98° |
| 2026-05-07 16:57 | 53.71778 | -8.27776 | 39927 ft | 511 kts | 99° |
| 2026-05-07 16:57 | 53.70898 | -8.15883 | 39933 ft | 512 kts | 99° |
| 2026-05-07 16:58 | 53.70008 | -8.04039 | 39934 ft | 512 kts | 99° |
| 2026-05-07 16:58 | 53.69101 | -7.92117 | 39933 ft | 513 kts | 99° |
| 2026-05-07 16:59 | 53.68183 | -7.80220 | 39947 ft | 512 kts | 99° |
| 2026-05-07 16:59 | 53.67261 | -7.68424 | 39945 ft | 512 kts | 99° |
| 2026-05-07 17:00 | 53.66319 | -7.56525 | 39942 ft | 512 kts | 99° |
| 2026-05-07 17:00 | 53.65370 | -7.44700 | 39933 ft | 512 kts | 99° |
| 2026-05-07 17:01 | 53.64406 | -7.32827 | 39945 ft | 512 kts | 99° |
| 2026-05-07 17:01 | 53.63436 | -7.21036 | 39933 ft | 511 kts | 99° |
| 2026-05-07 17:02 | 53.62452 | -7.09228 | 39943 ft | 511 kts | 99° |
| 2026-05-07 17:02 | 53.61459 | -6.97441 | 39932 ft | 510 kts | 99° |
| 2026-05-07 17:03 | 53.60453 | -6.85651 | 39942 ft | 510 kts | 99° |
| 2026-05-07 17:03 | 53.59433 | -6.73837 | 39946 ft | 510 kts | 99° |
| 2026-05-07 17:04 | 53.58409 | -6.62120 | 39953 ft | 510 kts | 99° |
| 2026-05-07 17:04 | 53.57358 | -6.50234 | 39951 ft | 510 kts | 99° |
| 2026-05-07 17:05 | 53.56309 | -6.38513 | 39978 ft | 509 kts | 99° |
| 2026-05-07 17:05 | 53.55246 | -6.26751 | 39949 ft | 510 kts | 100° |
| 2026-05-07 17:06 | 53.54175 | -6.15047 | 39970 ft | 509 kts | 100° |
| 2026-05-07 17:06 | 53.53088 | -6.03298 | 39947 ft | 509 kts | 100° |
| 2026-05-07 17:07 | 53.51997 | -5.91636 | 39973 ft | 509 kts | 100° |
| 2026-05-07 17:07 | 53.50889 | -5.79918 | 39950 ft | 509 kts | 100° |
| 2026-05-07 17:08 | 53.49777 | -5.68274 | 39966 ft | 508 kts | 100° |
| 2026-05-07 17:08 | 53.48644 | -5.56551 | 39960 ft | 508 kts | 100° |
| 2026-05-07 17:09 | 53.47606 | -5.44866 | 39970 ft | 509 kts | 96° |
| 2026-05-07 17:09 | 53.47062 | -5.33031 | 39981 ft | 509 kts | 96° |
| 2026-05-07 17:10 | 53.46501 | -5.21233 | 39971 ft | 509 kts | 96° |
| 2026-05-07 17:10 | 53.45912 | -5.09478 | 39968 ft | 508 kts | 96° |
| 2026-05-07 17:11 | 53.45300 | -4.97734 | 39993 ft | 508 kts | 96° |
| 2026-05-07 17:11 | 53.44669 | -4.85935 | 39989 ft | 508 kts | 96° |
| 2026-05-07 17:12 | 53.44025 | -4.74202 | 39984 ft | 508 kts | 96° |
| 2026-05-07 17:12 | 53.43366 | -4.62428 | 39992 ft | 508 kts | 96° |
| 2026-05-07 17:13 | 53.42700 | -4.50754 | 39991 ft | 508 kts | 96° |
| 2026-05-07 17:13 | 53.42017 | -4.39009 | 39999 ft | 508 kts | 96° |
| 2026-05-07 17:14 | 53.41323 | -4.27262 | 39989 ft | 507 kts | 97° |
| 2026-05-07 17:14 | 53.40618 | -4.15547 | 39994 ft | 504 kts | 97° |
| 2026-05-07 17:15 | 53.40266 | -4.09749 | 39986 ft | 493 kts | 97° |
| 2026-05-07 17:15 | 53.39920 | -4.04104 | 39996 ft | 483 kts | 97° |
| 2026-05-07 17:15 | 53.39230 | -3.93007 | 39989 ft | 485 kts | 97° |
| 2026-05-07 17:16 | 53.38524 | -3.81809 | 39993 ft | 484 kts | 97° |
| 2026-05-07 17:16 | 53.37809 | -3.70639 | 39978 ft | 484 kts | 97° |
| 2026-05-07 17:17 | 53.37082 | -3.59459 | 39977 ft | 485 kts | 97° |
| 2026-05-07 17:17 | 53.36344 | -3.48262 | 39987 ft | 485 kts | 97° |
| 2026-05-07 17:18 | 53.35597 | -3.37104 | 40003 ft | 485 kts | 97° |
| 2026-05-07 17:18 | 53.34838 | -3.25910 | 40015 ft | 486 kts | 97° |
| 2026-05-07 17:19 | 53.34064 | -3.14664 | 40020 ft | 485 kts | 97° |
| 2026-05-07 17:19 | 53.33282 | -3.03455 | 40020 ft | 486 kts | 97° |
| 2026-05-07 17:20 | 53.32486 | -2.92209 | 40020 ft | 485 kts | 97° |
| 2026-05-07 17:20 | 53.31686 | -2.81049 | 40026 ft | 485 kts | 97° |
| 2026-05-07 17:21 | 53.30874 | -2.69877 | 40027 ft | 485 kts | 97° |
| 2026-05-07 17:21 | 53.30050 | -2.58677 | 40017 ft | 485 kts | 97° |
| 2026-05-07 17:22 | 53.29221 | -2.47562 | 40032 ft | 485 kts | 97° |
| 2026-05-07 17:22 | 53.28375 | -2.36370 | 40033 ft | 484 kts | 97° |
| 2026-05-07 17:23 | 53.27517 | -2.25155 | 40031 ft | 484 kts | 98° |
| 2026-05-07 17:23 | 53.26654 | -2.14021 | 40026 ft | 484 kts | 98° |
| 2026-05-07 17:24 | 53.25778 | -2.02851 | 40030 ft | 484 kts | 98° |
| 2026-05-07 17:24 | 53.24899 | -1.91783 | 39995 ft | 483 kts | 98° |
| 2026-05-07 17:25 | 53.24007 | -1.80688 | 40029 ft | 484 kts | 98° |
| 2026-05-07 17:25 | 53.23102 | -1.69557 | 40040 ft | 483 kts | 98° |
| 2026-05-07 17:26 | 53.22192 | -1.58491 | 40021 ft | 483 kts | 98° |
| 2026-05-07 17:26 | 53.21267 | -1.47386 | 40023 ft | 483 kts | 98° |
| 2026-05-07 17:27 | 53.20337 | -1.36346 | 40039 ft | 484 kts | 98° |
| 2026-05-07 17:27 | 53.19385 | -1.25167 | 40041 ft | 483 kts | 99° |
| 2026-05-07 17:28 | 53.18435 | -1.14139 | 40035 ft | 483 kts | 99° |
| 2026-05-07 17:28 | 53.17473 | -1.03099 | 40041 ft | 483 kts | 99° |
| 2026-05-07 17:29 | 53.16494 | -0.91995 | 40048 ft | 483 kts | 99° |
| 2026-05-07 17:29 | 53.15503 | -0.80864 | 40067 ft | 484 kts | 99° |
| 2026-05-07 17:30 | 53.14505 | -0.69782 | 40041 ft | 484 kts | 99° |
| 2026-05-07 17:30 | 53.13500 | -0.58734 | 40068 ft | 484 kts | 99° |
| 2026-05-07 17:31 | 53.12486 | -0.47710 | 40066 ft | 484 kts | 99° |
| 2026-05-07 17:31 | 53.11458 | -0.36645 | 40075 ft | 484 kts | 99° |
| 2026-05-07 17:32 | 53.10442 | -0.25827 | 40065 ft | 484 kts | 99° |
| 2026-05-07 17:32 | 53.09575 | -0.16679 | 40064 ft | 484 kts | 99° |
| 2026-05-07 17:33 | 53.08339 | -0.03773 | 40086 ft | 484 kts | 99° |
| 2026-05-07 17:33 | 53.07277 | 0.07201 | 40047 ft | 484 kts | 99° |
| 2026-05-07 17:34 | 53.06205 | 0.18172 | 40064 ft | 484 kts | 99° |
| 2026-05-07 17:34 | 53.05118 | 0.29178 | 40061 ft | 484 kts | 99° |
| 2026-05-07 17:35 | 53.04013 | 0.40255 | 40065 ft | 485 kts | 99° |
| 2026-05-07 17:35 | 53.02905 | 0.51265 | 40068 ft | 484 kts | 99° |
| 2026-05-07 17:36 | 53.01794 | 0.62194 | 40066 ft | 485 kts | 99° |
| 2026-05-07 17:36 | 53.00681 | 0.73032 | 40072 ft | 485 kts | 100° |
| 2026-05-07 17:37 | 52.99543 | 0.84022 | 40055 ft | 484 kts | 100° |
| 2026-05-07 17:37 | 52.98403 | 0.94921 | 40074 ft | 485 kts | 100° |
| 2026-05-07 17:38 | 52.97195 | 1.05861 | 40066 ft | 484 kts | 101° |
| 2026-05-07 17:38 | 52.95930 | 1.16854 | 40068 ft | 485 kts | 101° |
| 2026-05-07 17:39 | 52.94661 | 1.27775 | 40069 ft | 485 kts | 101° |
| 2026-05-07 17:39 | 52.93384 | 1.38679 | 40080 ft | 485 kts | 101° |
| 2026-05-07 17:40 | 52.92091 | 1.49622 | 40001 ft | 478 kts | 101° |
| 2026-05-07 17:40 | 52.91459 | 1.54942 | 39500 ft | 474 kts | 101° |
| 2026-05-07 17:40 | 52.90818 | 1.60299 | 38619 ft | 479 kts | 101° |
| 2026-05-07 17:41 | 52.90173 | 1.65678 | 37784 ft | 481 kts | 101° |
| 2026-05-07 17:41 | 52.89524 | 1.71072 | 37191 ft | 477 kts | 101° |
| 2026-05-07 17:41 | 52.88872 | 1.76465 | 36660 ft | 472 kts | 101° |
| 2026-05-07 17:41 | 52.88227 | 1.81774 | 36163 ft | 469 kts | 101° |
| 2026-05-07 17:42 | 52.87588 | 1.87018 | 35736 ft | 467 kts | 101° |
| 2026-05-07 17:42 | 52.86954 | 1.92204 | 35276 ft | 464 kts | 100° |
| 2026-05-07 17:42 | 52.86318 | 1.97387 | 34546 ft | 465 kts | 100° |
| 2026-05-07 17:42 | 52.85666 | 2.02680 | 33353 ft | 473 kts | 100° |
| 2026-05-07 17:43 | 52.85012 | 2.07971 | 31964 ft | 484 kts | 100° |
| 2026-05-07 17:43 | 52.84336 | 2.13408 | 30950 ft | 484 kts | 100° |
| 2026-05-07 17:43 | 52.83658 | 2.18847 | 30387 ft | 475 kts | 100° |
| 2026-05-07 17:43 | 52.82996 | 2.24098 | 29875 ft | 466 kts | 101° |
| 2026-05-07 17:44 | 52.82196 | 2.29195 | 29232 ft | 462 kts | 104° |
| 2026-05-07 17:44 | 52.81335 | 2.34308 | 28504 ft | 458 kts | 104° |
| 2026-05-07 17:44 | 52.80492 | 2.39279 | 27792 ft | 455 kts | 104° |
| 2026-05-07 17:44 | 52.79641 | 2.44281 | 27068 ft | 451 kts | 104° |
| 2026-05-07 17:45 | 52.78789 | 2.49274 | 26378 ft | 447 kts | 105° |
| 2026-05-07 17:45 | 52.77959 | 2.54130 | 25679 ft | 443 kts | 105° |
| 2026-05-07 17:45 | 52.77125 | 2.58990 | 25011 ft | 439 kts | 105° |
| 2026-05-07 17:45 | 52.76299 | 2.63792 | 24343 ft | 435 kts | 105° |
| 2026-05-07 17:46 | 52.75470 | 2.68597 | 23668 ft | 431 kts | 106° |
| 2026-05-07 17:46 | 52.74660 | 2.73285 | 23002 ft | 428 kts | 106° |
| 2026-05-07 17:46 | 52.73836 | 2.78036 | 22317 ft | 425 kts | 106° |
| 2026-05-07 17:46 | 52.73033 | 2.82654 | 21660 ft | 422 kts | 106° |
| 2026-05-07 17:47 | 52.72231 | 2.87257 | 20991 ft | 419 kts | 106° |
| 2026-05-07 17:47 | 52.71423 | 2.91886 | 20307 ft | 416 kts | 106° |
| 2026-05-07 17:47 | 52.70627 | 2.96429 | 19644 ft | 414 kts | 106° |
| 2026-05-07 17:47 | 52.69833 | 3.00947 | 18992 ft | 411 kts | 106° |
| 2026-05-07 17:48 | 52.69041 | 3.05446 | 18328 ft | 408 kts | 106° |
| 2026-05-07 17:48 | 52.68258 | 3.09885 | 17707 ft | 404 kts | 106° |
| 2026-05-07 17:48 | 52.67478 | 3.14295 | 17092 ft | 400 kts | 106° |
| 2026-05-07 17:48 | 52.66706 | 3.18647 | 16482 ft | 397 kts | 106° |
| 2026-05-07 17:49 | 52.65939 | 3.22963 | 15869 ft | 393 kts | 106° |
| 2026-05-07 17:49 | 52.65170 | 3.27280 | 15253 ft | 390 kts | 106° |
| 2026-05-07 17:49 | 52.64412 | 3.31521 | 14639 ft | 386 kts | 106° |
| 2026-05-07 17:49 | 52.63667 | 3.35686 | 14054 ft | 383 kts | 106° |
| 2026-05-07 17:50 | 52.62911 | 3.39900 | 13439 ft | 380 kts | 106° |
| 2026-05-07 17:50 | 52.62175 | 3.43991 | 12958 ft | 373 kts | 106° |
| 2026-05-07 17:50 | 52.61454 | 3.47996 | 12825 ft | 357 kts | 106° |
| 2026-05-07 17:50 | 52.60766 | 3.51804 | 12802 ft | 339 kts | 106° |
| 2026-05-07 17:51 | 52.60111 | 3.55425 | 12790 ft | 323 kts | 106° |
| 2026-05-07 17:51 | 52.59484 | 3.58882 | 12773 ft | 308 kts | 106° |
| 2026-05-07 17:51 | 52.58892 | 3.62139 | 12756 ft | 294 kts | 106° |
| 2026-05-07 17:51 | 52.58310 | 3.65340 | 12585 ft | 287 kts | 107° |
| 2026-05-07 17:52 | 52.57744 | 3.68451 | 12243 ft | 287 kts | 107° |
| 2026-05-07 17:52 | 52.57171 | 3.71591 | 11919 ft | 286 kts | 107° |
| 2026-05-07 17:52 | 52.56603 | 3.74698 | 11624 ft | 284 kts | 107° |
| 2026-05-07 17:52 | 52.56038 | 3.77780 | 11303 ft | 283 kts | 107° |
| 2026-05-07 17:53 | 52.55471 | 3.80876 | 10998 ft | 281 kts | 107° |
| 2026-05-07 17:53 | 52.54913 | 3.83911 | 10700 ft | 280 kts | 107° |
| 2026-05-07 17:53 | 52.54354 | 3.86954 | 10422 ft | 278 kts | 107° |
| 2026-05-07 17:53 | 52.53798 | 3.89972 | 10116 ft | 277 kts | 107° |
| 2026-05-07 17:54 | 52.53246 | 3.92968 | 9831 ft | 275 kts | 107° |
| 2026-05-07 17:54 | 52.52688 | 3.95976 | 9476 ft | 275 kts | 108° |
| 2026-05-07 17:54 | 52.52026 | 3.98938 | 8985 ft | 280 kts | 112° |
| 2026-05-07 17:54 | 52.51300 | 4.01910 | 8475 ft | 286 kts | 112° |
| 2026-05-07 17:55 | 52.50551 | 4.04968 | 7966 ft | 289 kts | 112° |
| 2026-05-07 17:55 | 52.49811 | 4.07993 | 7447 ft | 289 kts | 112° |
| 2026-05-07 17:55 | 52.49081 | 4.10981 | 6953 ft | 280 kts | 112° |
| 2026-05-07 17:55 | 52.48369 | 4.13895 | 6581 ft | 270 kts | 112° |
| 2026-05-07 17:56 | 52.47687 | 4.16680 | 6312 ft | 261 kts | 112° |
| 2026-05-07 17:56 | 52.47012 | 4.19435 | 6033 ft | 259 kts | 111° |
| 2026-05-07 17:56 | 52.46347 | 4.22146 | 5895 ft | 254 kts | 111° |
| 2026-05-07 17:56 | 52.45693 | 4.24803 | 5753 ft | 253 kts | 111° |
| 2026-05-07 17:57 | 52.45033 | 4.27487 | 5628 ft | 254 kts | 111° |
| 2026-05-07 17:57 | 52.44593 | 4.29275 | 5554 ft | 255 kts | 111° |
| 2026-05-07 17:57 | 52.43709 | 4.32861 | 5416 ft | 253 kts | 111° |
| 2026-05-07 17:57 | 52.43050 | 4.35531 | 5293 ft | 253 kts | 111° |
| 2026-05-07 17:58 | 52.42397 | 4.38169 | 5152 ft | 251 kts | 111° |
| 2026-05-07 17:58 | 52.41742 | 4.40814 | 5041 ft | 251 kts | 111° |
| 2026-05-07 17:58 | 52.41037 | 4.43445 | 4915 ft | 252 kts | 121° |
| 2026-05-07 17:58 | 52.39788 | 4.45424 | 4804 ft | 254 kts | 150° |
| 2026-05-07 17:59 | 52.38100 | 4.46146 | 4687 ft | 255 kts | 178° |
| 2026-05-07 17:59 | 52.36334 | 4.46044 | 4637 ft | 253 kts | 182° |
| 2026-05-07 17:59 | 52.34606 | 4.45872 | 4577 ft | 244 kts | 182° |
| 2026-05-07 17:59 | 52.32921 | 4.45699 | 4293 ft | 246 kts | 182° |
| 2026-05-07 18:00 | 52.31176 | 4.45520 | 3913 ft | 251 kts | 182° |
| 2026-05-07 18:00 | 52.29417 | 4.45341 | 3553 ft | 254 kts | 182° |
| 2026-05-07 18:00 | 52.27695 | 4.45165 | 3248 ft | 247 kts | 182° |
| 2026-05-07 18:00 | 52.26009 | 4.44990 | 3006 ft | 238 kts | 182° |
| 2026-05-07 18:01 | 52.24389 | 4.44818 | 2869 ft | 229 kts | 182° |
| 2026-05-07 18:01 | 52.22809 | 4.44649 | 2621 ft | 225 kts | 182° |
| 2026-05-07 18:01 | 52.21248 | 4.44486 | 2367 ft | 222 kts | 180° |
| 2026-05-07 18:01 | 52.19791 | 4.45003 | 2102 ft | 215 kts | 148° |
| 2026-05-07 18:02 | 52.18574 | 4.48756 | 1963 ft | 183 kts | 77° |
| 2026-05-07 18:02 | 52.19202 | 4.50472 | 1964 ft | 178 kts | 37° |
| 2026-05-07 18:02 | 52.20245 | 4.51523 | 1984 ft | 176 kts | 43° |
| 2026-05-07 18:03 | 52.20977 | 4.53106 | 2000 ft | 177 kts | 57° |
| 2026-05-07 18:03 | 52.21606 | 4.54817 | 1986 ft | 175 kts | 57° |
| 2026-05-07 18:03 | 52.22245 | 4.56488 | 1988 ft | 176 kts | 56° |
| 2026-05-07 18:03 | 52.22905 | 4.58185 | 1986 ft | 175 kts | 56° |
| 2026-05-07 18:04 | 52.23558 | 4.59869 | 1977 ft | 174 kts | 56° |
| 2026-05-07 18:04 | 52.24180 | 4.61477 | 1756 ft | 163 kts | 56° |
| 2026-05-07 18:04 | 52.24760 | 4.62977 | 1553 ft | 152 kts | 56° |
| 2026-05-07 18:04 | 52.25309 | 4.64398 | 1361 ft | 144 kts | 56° |
| 2026-05-07 18:05 | 52.25827 | 4.65745 | 1171 ft | 135 kts | 57° |
| 2026-05-07 18:05 | 52.26315 | 4.67012 | 1004 ft | 130 kts | 56° |
| 2026-05-07 18:05 | 52.26793 | 4.68250 | 828 ft | 129 kts | 56° |
| 2026-05-07 18:05 | 52.27280 | 4.69491 | 642 ft | 130 kts | 57° |
| 2026-05-07 18:06 | 52.27766 | 4.70725 | 457 ft | 131 kts | 57° |
| 2026-05-07 18:06 | 52.28252 | 4.72007 | 298 ft | 133 kts | 57° |
| 2026-05-07 18:06 | 52.28734 | 4.73267 | 99 ft | 130 kts | 57° |
| 2026-05-07 18:06 | 52.29197 | 4.74472 | 6 ft | 116 kts | 55° |
| 2026-05-07 18:07 | 52.29555 | 4.75396 | 6 ft | 78 kts | 58° |
| 2026-05-07 18:07 | 52.29780 | 4.75984 | 6 ft | 43 kts | 58° |
| 2026-05-07 18:07 | 52.29899 | 4.76290 | 6 ft | 29 kts | 58° |
| 2026-05-07 18:07 | 52.30017 | 4.76532 | 6 ft | 26 kts | 27° |
| 2026-05-07 18:08 | 52.30127 | 4.76623 | 6 ft | 9 kts | 27° |
| 2026-05-07 18:08 | 52.30178 | 4.76667 | 6 ft | 3 kts | 28° |
| 2026-05-07 18:08 | 52.30204 | 4.76690 | 6 ft | 5 kts | 28° |
| 2026-05-07 18:08 | 52.30217 | 4.76701 | 6 ft | 0 kts | 28° |
| 2026-05-07 18:09 | 52.30230 | 4.76713 | 6 ft | 4 kts | 28° |
| 2026-05-07 18:09 | 52.30232 | 4.76714 | 6 ft | 1 kts | 28° |
| 2026-05-07 18:09 | 52.30252 | 4.76732 | 6 ft | 5 kts | 29° |
| 2026-05-07 18:09 | 52.30287 | 4.76767 | 5 ft | 5 kts | 41° |
| 2026-05-07 18:10 | 52.30316 | 4.76835 | 6 ft | 9 kts | 58° |
| 2026-05-07 18:10 | 52.30357 | 4.76943 | 6 ft | 12 kts | 58° |
| 2026-05-07 18:10 | 52.30405 | 4.77066 | 6 ft | 2 kts | 59° |
| 2026-05-07 18:10 | 52.30420 | 4.77107 | 6 ft | 5 kts | 59° |
| 2026-05-07 18:11 | 52.30432 | 4.77140 | 6 ft | 0 kts | 59° |
| 2026-05-07 18:11 | 52.30457 | 4.77159 | 6 ft | 6 kts | 358° |
| 2026-05-07 18:11 | 52.30523 | 4.77113 | 6 ft | 13 kts | 329° |
| 2026-05-07 18:12 | 52.30611 | 4.77021 | 5 ft | 10 kts | 326° |
| 2026-05-07 18:12 | 52.30657 | 4.76921 | 5 ft | 10 kts | 289° |
| 2026-05-07 18:12 | 52.30704 | 4.76811 | 5 ft | 12 kts | 313° |
| 2026-05-07 18:12 | 52.30748 | 4.76746 | 6 ft | 3 kts | 328° |
| 2026-05-07 18:13 | 52.30769 | 4.76732 | 5 ft | 0 kts | 340° |
| 2026-05-07 18:13 | 52.30786 | 4.76721 | 6 ft | 4 kts | 339° |
| 2026-05-07 18:13 | 52.30799 | 4.76713 | 5 ft | 0 kts | 340° |